EncompDEV
CodeWizard

Download Field Explorer Pro and search all Standard, Virtual, Custom and RDB Fields in your Encompass

Search Fields in containing Field Changes
Your Field Search History
Time Search Version Fields
01/19/2019 12:51 fre 18.4 410
Global Field Search History
Time Search Version Fields
01/19/2019 12:51 fre 18.4 410
01/19/2019 12:51 : 18.4 6
01/19/2019 12:51 996 18.4 12
01/19/2019 12:51 993 18.4 11
01/19/2019 12:51 sent 18.4 188
01/19/2019 12:51 993 18.4 11
01/19/2019 12:51 986 18.4 12
01/19/2019 12:51 694 18.4 22
01/19/2019 12:51 985 18.4 11
01/19/2019 12:51 NTB.X29 18.4 1
01/19/2019 12:51 972 18.4 11
01/19/2019 12:51 965 18.4 33
01/19/2019 12:51 96 18.4 519
01/19/2019 12:51 959 18.4 22
01/19/2019 12:51 958 18.4 22
01/19/2019 12:51 SECONDARY 18.4 4
01/19/2019 12:51 954 18.4 21
01/19/2019 12:51 946 18.4 21
01/19/2019 12:51 LE Loan 18.4 256
01/19/2019 12:51 946 18.4 21
01/19/2019 12:51 934 18.4 32
01/19/2019 12:51 mortgage insurance 18.4 77
01/19/2019 12:51 93 18.4 530
01/19/2019 12:51 finance charge 18.4 11
01/19/2019 12:51 93 18.4 530
01/19/2019 12:50 900 18.4 147
01/19/2019 12:50 878 18.4 20
01/19/2019 12:50 86 18.4 436
01/19/2019 12:50 85 18.4 408
01/19/2019 12:50 833 18.4 66
01/19/2019 12:50 814 18.4 90
01/19/2019 12:50 806 18.4 68
01/19/2019 12:50 805 18.4 76
01/19/2019 12:50 800 18.4 365
01/19/2019 12:50 78% 18.4 1
01/19/2019 12:50 fun 18.4 478
01/19/2019 12:50 78% 18.4 1
01/19/2019 12:50 774 18.4 31
01/19/2019 12:50 HMDA.X37 18.4 1
01/19/2019 12:50 774 18.4 31
01/19/2019 12:50 764 18.4 32
01/19/2019 12:50 Freddie Mac AccountChek Asset 18.4 2
01/19/2019 12:50 764 18.4 32
01/19/2019 12:50 749 18.4 32
01/19/2019 12:50 1198 18.4 5
01/19/2019 12:50 749 18.4 32
01/19/2019 12:50 744 18.4 34
01/19/2019 12:50 manager 18.4 14
01/19/2019 12:50 740 18.4 44
01/19/2019 12:50 738 18.4 33
01/19/2019 12:50 capiap.x 18.4 84
01/19/2019 12:50 738 18.4 33
01/19/2019 12:50 736 18.4 34
01/19/2019 12:50 723 18.4 22
01/19/2019 12:50 718 18.4 22
01/19/2019 12:50 res 18.4 1,274
01/19/2019 12:50 718 18.4 22
01/19/2019 12:50 714 18.4 22
01/19/2019 12:50 71 18.4 546
01/19/2019 12:50 708 18.4 23
01/19/2019 12:49 214 18.4 116
01/19/2019 12:49 2207 18.4 2
01/19/2019 12:49 702 18.4 59
01/19/2019 12:49 700 18.4 30
01/19/2019 12:49 Borrower C 18.4 1,566
01/19/2019 12:49 70 18.4 655
01/19/2019 12:49 NEWHUD2.X3361 18.4 1
01/19/2019 12:49 70 18.4 655
01/19/2019 12:49 691 18.4 22
01/19/2019 12:49 904 18.4 81
01/19/2019 12:49 691 18.4 22
01/19/2019 12:49 69 18.4 547
01/19/2019 12:49 default 18.4 9
01/19/2019 12:49 69 18.4 547
01/19/2019 12:49 repr 18.4 16
01/19/2019 12:49 680 18.4 34
01/19/2019 12:49 677 18.4 35
01/19/2019 12:49 Lender number 18.4 23
01/19/2019 12:49 675 18.4 46
01/19/2019 12:49 PREQUAL.X250 18.4 1
01/19/2019 12:49 670 18.4 24
01/19/2019 12:49 employer 18.4 94
01/19/2019 12:49 670 18.4 24
01/19/2019 12:49 662 18.4 34
01/19/2019 12:49 648 18.4 23
01/19/2019 12:49 643 18.4 14
01/19/2019 12:49 Price a 18.4 5,250
01/19/2019 12:49 642 18.4 13
01/19/2019 12:49 64 18.4 484
01/19/2019 12:49 632 18.4 12
01/19/2019 12:49 63 18.4 472
01/19/2019 12:49 629 18.4 12
01/19/2019 12:49 628 18.4 22
01/19/2019 12:49 626 18.4 13
01/19/2019 12:48 620 18.4 13
01/19/2019 12:48 615 18.4 12
01/19/2019 12:48 waived 18.4 17
01/19/2019 12:48 590 18.4 12
01/19/2019 12:48 584 18.4 12
01/19/2019 12:48 578 18.4 13
01/19/2019 12:48 566 18.4 12
01/19/2019 12:48 532 18.4 13
01/19/2019 12:48 FR040 18.4 4
01/19/2019 12:48 51 18.4 586
01/19/2019 12:48 502 18.4 47
01/19/2019 12:48 496 18.4 35
01/19/2019 12:48 479 18.4 38
01/19/2019 12:48 consent 18.4 67
01/19/2019 12:48 479 18.4 38
01/19/2019 12:48 463 18.4 57
01/19/2019 12:48 462 18.4 46
01/19/2019 12:48 461 18.4 47
01/19/2019 12:48 REQUEST.X2 18.4 11
01/19/2019 12:48 461 18.4 47
01/19/2019 12:48 454 18.4 41
01/19/2019 12:48 lender case 18.4 1
01/19/2019 12:48 454 18.4 41
01/19/2019 12:48 4506t 18.4 62
01/19/2019 12:48 sell 18.4 4,802
01/19/2019 12:48 4506t 18.4 62
01/19/2019 12:48 450 18.4 266
01/19/2019 12:48 4487 18.4 3
01/19/2019 12:48 448 18.4 47
01/19/2019 12:48 446 18.4 58
01/19/2019 12:47 444 18.4 43
01/19/2019 12:47 442 Re 18.4 4
01/19/2019 12:47 439 18.4 152
01/19/2019 12:47 va funding fee 18.4 6
01/19/2019 12:47 gover 18.4 12
01/19/2019 12:47 AMOR 18.4 135
01/19/2019 12:47 va funding fee 18.4 6
01/19/2019 12:47 ucd.x2 18.4 1
01/19/2019 12:47 combined 18.4 14
01/19/2019 12:47 overwire 18.4 2
01/19/2019 12:47 nmls number 18.4 2
01/19/2019 12:47 modif 18.4 20
01/19/2019 12:47 last payment date 18.4 2
01/19/2019 12:47 L82 18.4 2
01/19/2019 12:47 last due 18.4 1
01/19/2019 12:47 suspense 18.4 1
01/19/2019 12:47 Fees Line 8 18.4 622
01/19/2019 12:47 Consent Date 18.4 19
01/19/2019 12:47 1848 18.4 1
01/19/2019 12:47 1677 18.4 3
01/19/2019 12:47 day 1 18.4 43
01/19/2019 12:47 1677 18.4 3
01/19/2019 12:47 copy 18.4 46
01/19/2019 12:47 lock requested 18.4 70
01/19/2019 12:47 NewHud.x1177 18.4 1
01/19/2019 12:47 validatio 18.4 2
01/19/2019 12:47 subject indicator 18.4 6
01/19/2019 12:47 dec 18.4 51
01/19/2019 12:47 1342 18.4 3
01/19/2019 12:47 USDA X3 18.4 11
01/19/2019 12:46 property info flood zone 18.4 1
01/19/2019 12:46 In 18.4 6,589
01/19/2019 12:46 Assump 18.4 18
01/19/2019 12:46 agnt 18.4 2
01/19/2019 12:46 x78 18.4 69
01/19/2019 12:46 DD0011 18.4 1
01/19/2019 12:46 x78 18.4 69
01/19/2019 12:46 x733 18.4 3
01/19/2019 12:46 vod 18.4 2
01/19/2019 12:46 veteran st 18.4 20
01/19/2019 12:46 vend.x969 18.4 1
01/19/2019 12:46 usda.x50 18.4 1
01/19/2019 12:46 vend.x969 18.4 1
01/19/2019 12:46 vend.x936 18.4 1
01/19/2019 12:46 vend.x807 18.4 1
01/19/2019 12:46 variable 18.4 8
01/19/2019 12:46 update date 18.4 18
01/19/2019 12:46 underwriting flood 18.4 4
01/19/2019 12:46 DENIAL.X12 18.4 1
01/19/2019 12:46 underwriting flood 18.4 4
01/19/2019 12:46 U 18.4 25,964
01/19/2019 12:46 trans details firs 18.4 6
01/19/2019 12:46 425 18.4 111
01/19/2019 12:46 trans details dat 18.4 30
01/19/2019 12:46 248 18.4 162
01/19/2019 12:46 trans details dat 18.4 30
01/19/2019 12:46 trans details cash 18.4 14
01/19/2019 12:46 1355 18.4 1
01/19/2019 12:46 tpo.x38 18.4 1
01/19/2019 12:46 total loan costs 18.4 7
01/19/2019 12:46 tos 18.4 88
01/19/2019 12:46 tod 18.4 6
01/19/2019 12:46 terminatio 18.4 12
01/19/2019 12:46 temporary b 18.4 3
01/19/2019 12:46 sys.x116 18.4 1
01/19/2019 12:45 submission type 18.4 2
01/19/2019 12:45 subject propert 18.4 340
01/19/2019 12:45 19 18.4 1,347
01/19/2019 12:45 street address line 18.4 4
01/19/2019 12:45 ssr 18.4 2
01/19/2019 12:45 ss 18.4 1,687
01/19/2019 12:45 sr 18.4 227
01/19/2019 12:45 sold date 18.4 7
01/19/2019 12:45 Closing 18.4 2,101
01/19/2019 12:45 sold date 18.4 7
01/19/2019 12:45 sho 18.4 740
01/19/2019 12:45 shared 18.4 1
01/19/2019 12:45 settlemen 18.4 127
01/19/2019 12:45 case b 18.4 9
01/19/2019 12:45 servicin 18.4 350
01/19/2019 12:45 Request Status 18.4 33
01/19/2019 12:45 sellers agent email 18.4 1
01/19/2019 12:45 Initial Sub 18.4 2
01/19/2019 12:45 auth 18.4 278
01/19/2019 12:45 sellers agent email 18.4 1
01/19/2019 12:45 seller loan ID 18.4 45
01/19/2019 12:45 sales price 18.4 12
01/19/2019 12:45 sECONDARY REGISTRATION 18.4 1
01/19/2019 12:45 bi 18.4 391
01/19/2019 12:45 roun 18.4 40
01/19/2019 12:45 revolving 18.4 1
01/19/2019 12:45 VAELIG.X3 18.4 11
01/19/2019 12:45 revolving 18.4 1
01/19/2019 12:45 required field 18.4 2
01/19/2019 12:45 rented 18.4 3
01/19/2019 12:44 1181 18.4 2
01/19/2019 12:44 remit 18.4 8
01/19/2019 12:44 rate lock dat 18.4 393
01/19/2019 12:44 qm s 18.4 328
01/19/2019 12:44 718 18.4 22
01/19/2019 12:44 loc 18.4 11,761
01/19/2019 12:44 qm s 18.4 328
01/19/2019 12:44 21 18.4 2,001
01/19/2019 12:44 purchase Date 18.4 33
01/19/2019 12:44 proposed haz 18.4 4
01/19/2019 12:44 506 18.4 258
01/19/2019 12:44 proposed haz 18.4 4
01/19/2019 12:44 project cla 18.4 4
01/19/2019 12:44 program description 18.4 1
01/19/2019 12:44 processor phone 18.4 4
01/19/2019 12:44 process fee borrow 18.4 1
01/19/2019 12:44 Expenses proposed Haz ins 18.4 2
01/19/2019 12:44 preliminary 18.4 48
01/19/2019 12:44 CASASRN.X20 18.4 5
01/19/2019 12:44 pre order 18.4 2
01/19/2019 12:44 points paid 18.4 9
01/19/2019 12:44 1992 18.4 2
01/19/2019 12:44 points paid 18.4 9
01/19/2019 12:44 pmt 18.4 123
01/19/2019 12:44 penela 18.4 12
01/19/2019 12:44 pend 18.4 236
01/19/2019 12:44 other property 18.4 7
01/19/2019 12:44 nmls option arm in 18.4 1
01/19/2019 12:44 newhud2.x4427 18.4 1
01/19/2019 12:44 mtg ins 18.4 57
01/19/2019 12:44 FR011 18.4 2
01/19/2019 12:44 conversion 18.4 7
01/19/2019 12:44 Loan closing 18.4 106
01/19/2019 12:43 Borr Employer Badge or Employee ID 18.4 2
01/19/2019 12:43 Loan closing 18.4 106
01/19/2019 12:43 Doc 18.4 1,087
01/19/2019 12:43 Denial 18.4 3,466
01/19/2019 12:43 AUS Hou 18.4 20
01/19/2019 12:43 number of conditions 18.4 10
01/19/2019 12:43 804 18.4 69
01/19/2019 12:43 seller loan ID 18.4 45
01/19/2019 12:43 CD. 18.4 59
01/19/2019 12:43 In 18.4 16,530
01/19/2019 12:43 DISCLOSURE.X495 18.4 1
01/19/2019 12:43 guarantee 18.4 51
01/19/2019 12:42 915 18.4 20
01/19/2019 12:42 1626 18.4 3
01/19/2019 12:42 li 18.4 9,400
01/19/2019 12:42 assumability 18.4 2
01/19/2019 12:42 vavob.x69 18.4 1
01/19/2019 12:42 Insurance 18.4 261
01/19/2019 12:42 note amount 18.4 3
01/19/2019 12:41 No 18.4 1,074
01/19/2019 12:41 802 18.4 257
01/19/2019 12:41 371 18.4 168
01/19/2019 12:41 lieu 18.4 3
01/19/2019 12:41 term2 18.4 1
01/19/2019 12:41 closing disclosure name 18.4 1
01/19/2019 12:41 assets 18.4 40
01/19/2019 12:41 Thir 18.4 48
01/19/2019 12:41 ty 18.4 2,384
01/19/2019 12:41 Origination 18.4 87
01/19/2019 12:41 Union 18.4 181
01/19/2019 12:41 appl 18.4 238
01/19/2019 12:40 MS.LOANDU 18.4 1
01/19/2019 12:40 bot 18.4 19
01/19/2019 12:40 1552 18.4 2
01/19/2019 12:40 declaration 18.4 32
01/19/2019 12:40 1107 18.4 11
01/19/2019 12:40 Doc Type 18.4 80
01/19/2019 12:40 EDISCLOSED2015TRK.EDISCLOS 18.4 5
01/19/2019 12:40 underwriting date 18.4 28
01/19/2019 12:40 Interest 18.4 301
01/19/2019 12:40 number of payments 18.4 2
01/19/2019 12:40 152 18.4 79
01/19/2019 12:40 1871 18.4 2
01/19/2019 12:40 transfer tax 18.4 2
01/19/2019 12:40 231 18.4 47
01/19/2019 12:39 inves 18.4 651
01/19/2019 12:39 1347 18.4 4
01/19/2019 12:39 FL0002 18.4 2
01/19/2019 12:39 976 18.4 23
01/19/2019 12:39 15 18.4 1,662
01/19/2019 12:39 loan offi 18.4 162
01/19/2019 12:39 interest rate reduct 18.4 1
01/19/2019 12:39 co 18.4 9,474
01/19/2019 12:39 LOAN AMOUNT 18.4 344
01/19/2019 12:39 type 18.4 908
01/19/2019 12:39 newhud.x1045 18.4 1
01/19/2019 12:39 lender ID 18.4 266
01/19/2019 12:39 30 18.4 1,525
01/19/2019 12:39 VEND.X928 18.4 1
01/19/2019 12:39 equi 18.4 358
01/19/2019 12:39 modifie 18.4 16
01/19/2019 12:39 cltv 18.4 38
01/19/2019 12:39 CLOSING DISCLO 18.4 1,016
01/19/2019 12:39 COREMILESTONE 18.4 1
01/19/2019 12:39 m 18.4 24,251
01/19/2019 12:39 seller's info 18.4 14
01/19/2019 12:38 fe 18.4 7,520
01/19/2019 12:38 submittal 18.4 2
01/19/2019 12:38 Co-Bo 18.4 562
01/19/2019 12:38 2365 18.4 2
01/19/2019 12:38 fr0104 18.4 1
01/19/2019 12:38 mon 18.4 341
01/19/2019 12:38 types 18.4 29
01/19/2019 12:38 disbursement 18.4 73
01/19/2019 12:38 hmda.x50 18.4 1
01/19/2019 12:38 loan proceed 18.4 4
01/19/2019 12:38 4030 18.4 2
01/19/2019 12:37 denial.x38 18.4 1
01/19/2019 12:37 2298 18.4 2
01/19/2019 12:37 uwc.ptd 18.4 1
01/19/2019 12:37 com 18.4 3,845
01/19/2019 12:37 app 18.4 688
01/19/2019 12:37 NEWHUD.X1147 18.4 1
01/19/2019 12:37 4173 18.4 2
01/19/2019 12:36 203K 18.4 134
01/19/2019 12:36 2645 18.4 2
01/19/2019 12:36 AUS.X10 18.4 22
01/19/2019 12:36 675 18.4 45
01/19/2019 12:36 Contact 18.4 1,171
01/19/2019 12:36 foreclosure 18.4 18
01/19/2019 12:35 1862 18.4 2
01/19/2019 12:35 Modified 18.4 16
01/19/2019 12:35 TR0005 18.4 2
01/19/2019 12:35 flo 18.4 125
01/19/2019 12:35 hmda.x12 18.4 1
01/19/2019 12:35 1305 18.4 58
01/19/2019 12:34 Undisclosed 18.4 2
01/19/2019 12:34 2214 18.4 2
01/19/2019 12:34 seller email 18.4 5
01/19/2019 12:34 eques 18.4 7,173
01/19/2019 12:34 FLOOD 18.4 109
01/19/2019 12:34 1307 18.4 58
01/19/2019 12:34 File contacts H 18.4 406
01/19/2019 12:33 Co-Borr Declarations A 18.4 15
01/19/2019 12:33 orgid 18.4 1
01/19/2019 12:33 PURCHASE DATE 18.4 33
01/19/2019 12:33 examination 18.4 14
01/19/2019 12:33 marital 18.4 2
01/19/2019 12:33 B 18.4 19,482
01/19/2019 12:33 418 18.4 81
01/19/2019 12:33 borrower na 18.4 320
01/19/2019 12:33 3624 18.4 2
01/19/2019 12:33 Qualifies as a Veteran 18.4 1
01/19/2019 12:32 Attorney Name 18.4 9
01/19/2019 12:32 Timestamp 18.4 1
01/19/2019 12:32 visual observation 18.4 6
01/19/2019 12:32 LOCKRATE.2278 18.4 1
01/19/2019 12:32 HOEP 18.4 4
01/19/2019 12:32 information not provided 18.4 6
01/19/2019 12:32 307 18.4 104
01/19/2019 12:32 2301 18.4 2
01/19/2019 12:31 line 802 18.4 225
01/19/2019 12:31 FR0306 18.4 1
01/19/2019 12:31 Warran 18.4 13
01/19/2019 12:31 a6 18.4 2
01/19/2019 12:31 LEGAL ENTITY 18.4 9
01/19/2019 12:31 disclosur 18.4 2,355
01/19/2019 12:31 fr0104 18.4 1
01/19/2019 12:31 CE0002 18.4 2
01/19/2019 12:30 reduc 18.4 41
01/19/2019 12:30 BORROW 18.4 1,815
01/19/2019 12:30 fm0018 18.4 1
01/19/2019 12:30 Co-Borr Employer State 18.4 2
01/19/2019 12:30 HM 18.4 125
01/19/2019 12:30 Disclosure.X564 18.4 1
01/19/2019 12:30 3546 18.4 2
01/19/2019 12:29 19 18.4 1,374
01/19/2019 12:29 investor name 18.4 73
01/19/2019 12:29 closing dis 18.4 1,034
01/19/2019 12:29 DISCLOSURE.X8 18.4 111
01/19/2019 12:28 total amount fin 18.4 2
01/19/2019 12:28 CS 18.4 557
01/19/2019 12:28 2025 18.4 2
01/19/2019 12:28 most 18.4 5,707
01/19/2019 12:28 dividend 18.4 20
01/19/2019 12:28 FHA REfi 18.4 6
01/19/2019 12:27 uwc.ptd 18.4 1
01/19/2019 12:27 FR0 18.4 54
01/19/2019 12:27 propo 18.4 36
01/19/2019 12:27 1172 18.4 18
01/19/2019 12:27 ULDD.X21 18.4 1
01/19/2019 12:27 ctc 18.4 1
01/19/2019 12:27 563 18.4 13
01/19/2019 12:27 DD0024 18.4 1
01/19/2019 12:27 veter 18.4 51
01/19/2019 12:26 Document Type 18.4 26
01/19/2019 12:26 MORNET.X15 18.4 1
01/19/2019 12:26 user 18.4 289
01/19/2019 12:26 base loan 18.4 17
01/19/2019 12:26 VEND.X445 18.4 1
01/19/2019 12:26 138 18.4 63
01/19/2019 12:26 QM.X32 18.4 10
01/19/2019 12:26 3981 18.4 2
01/19/2019 12:26 ability-t 18.4 15
01/19/2019 12:26 American indian 18.4 4
01/19/2019 12:26 Prev A 18.4 6,064
01/19/2019 12:25 consultant f 18.4 3
01/19/2019 12:25 lock expiratio 18.4 29
01/19/2019 12:25 ter 18.4 1,000
01/19/2019 12:25 HUD1 Borr - 18.4 65
01/19/2019 12:25 sync 18.4 3
01/19/2019 12:25 2 18.4 20,540
01/19/2019 12:25 1799 18.4 2
01/19/2019 12:25 first payment date 18.4 8
01/19/2019 12:24 residual 18.4 6
01/19/2019 12:24 newhud.x812 18.4 1
01/19/2019 12:24 disclosure.x76 18.4 11
01/19/2019 12:24 hmda.x12 18.4 1
01/19/2019 12:24 Investor 18.4 640
01/19/2019 12:24 reasons 18.4 15
01/19/2019 12:24 3426 18.4 2
01/19/2019 12:24 dwell 18.4 1
01/19/2019 12:24 Underwriting Risk 18.4 10
01/19/2019 12:23 Tea 18.4 28
01/19/2019 12:23 Adjustments 15 18.4 24
01/19/2019 12:23 lock (Most 18.4 4,691
01/19/2019 12:23 conditional app 18.4 1
01/19/2019 12:23 MORNET 18.4 54
01/19/2019 12:23 usda.x3 18.4 11
01/19/2019 12:23 3639 18.4 2
01/19/2019 12:22 cumulated 18.4 12
01/19/2019 12:22 ta 18.4 8,505
01/19/2019 12:22 borrowe 18.4 1,815
01/19/2019 12:22 days to expire 18.4 1
01/19/2019 12:22 print date 18.4 7
01/19/2019 12:22 2860 18.4 2
01/19/2019 12:22 3625 18.4 2
01/19/2019 12:22 2292 18.4 13
01/19/2019 12:21 APPLICATION DATE 18.4 12
01/19/2019 12:21 745 18.4 32
01/19/2019 12:21 ven 18.4 1,085
01/19/2019 12:21 closing dat 18.4 213
01/19/2019 12:21 typ 18.4 955
01/19/2019 12:21 it 18.4 4,380
01/19/2019 12:21 4499 18.4 2
01/19/2019 12:20 LOCKRATE.REQUEST 18.4 1,132
01/19/2019 12:20 2822 18.4 2
01/19/2019 12:20 797 18.4 34
01/19/2019 12:20 VA military 18.4 48
01/19/2019 12:19 Rate 18.4 13,952
01/19/2019 12:19 mortgager 18.4 1
01/19/2019 12:19 premium 18.4 134
01/19/2019 12:19 NEWHUD.X803 18.4 1
01/19/2019 12:19 Fees Inte 18.4 17
01/19/2019 12:18 identifier 18.4 32
01/19/2019 12:18 687 18.4 33
01/19/2019 12:18 bo 18.4 3,751
01/19/2019 12:18 MORNET.X40 18.4 1
01/19/2019 12:18 1160 18.4 4
01/19/2019 12:18 disbursement date 18.4 8
01/19/2019 12:18 4144 18.4 2
01/19/2019 12:17 Mort 18.4 1,527
01/19/2019 12:17 realestatebrokerb 18.4 11
01/19/2019 12:17 newhud.x660 18.4 1
01/19/2019 12:17 428 18.4 36
01/19/2019 12:17 NOTICES.X83 18.4 1
01/19/2019 12:17 AUSt 18.4 196
01/19/2019 12:17 estate 18.4 38
01/19/2019 12:16 buyside 18.4 156
01/19/2019 12:16 lockrate.curre 18.4 2
01/19/2019 12:16 DISCLOSURE.X495 18.4 1
01/19/2019 12:16 HO 18.4 1,785
01/19/2019 12:16 i 18.4 29,829
01/19/2019 12:16 NEWHUD2.X927 18.4 1
01/19/2019 12:16 fnma 18.4 1
01/19/2019 12:16 01A 18.4 71
01/19/2019 12:16 service type 18.4 13
01/19/2019 12:16 cob 18.4 176
01/19/2019 12:16 credit making 18.4 15
01/19/2019 12:16 4 18.4 12,928
01/19/2019 12:15 revolvin 18.4 1
01/19/2019 12:15 pa 18.4 7,317
01/19/2019 12:15 denial.x61 18.4 1
01/19/2019 12:15 sold date 18.4 7
01/19/2019 12:15 rate lock requested by 18.4 30
01/19/2019 12:15 Borr HMD 18.4 23
01/19/2019 12:14 uldd.x179 18.4 1
01/19/2019 12:14 1821 18.4 13
01/19/2019 12:14 169 18.4 67
01/19/2019 12:14 newhud.x1139 18.4 1
01/19/2019 12:14 living 18.4 4
01/19/2019 12:14 section of housing act 18.4 1
01/19/2019 12:13 lender I 18.4 951
01/19/2019 12:13 3152 18.4 2
01/19/2019 12:13 MORNET.X40 18.4 1
01/19/2019 12:13 improvements 18.4 15
01/19/2019 12:13 Broker Name 18.4 16
01/19/2019 12:13 wit 18.4 76
01/19/2019 12:13 sales 18.4 26
01/19/2019 12:13 deed 18.4 12
01/19/2019 12:13 DU special 18.4 2
01/19/2019 12:13 STI 18.4 541
01/19/2019 12:13 Amor 18.4 135
01/19/2019 12:13 submissions 18.4 2
01/19/2019 12:13 section of housing a 18.4 1
01/19/2019 12:12 employment 18.4 25
01/19/2019 12:12 Title In 18.4 209
01/19/2019 12:12 sales 18.4 25
01/19/2019 12:12 lOAN pROGRAM 18.4 75
01/19/2019 12:12 3261 18.4 2
01/19/2019 12:12 rate lock (most recent) rate 18.4 4,457
01/19/2019 12:12 VEND.X3 18.4 107
01/19/2019 12:12 newhud 18.4 5,705
01/19/2019 12:12 79 18.4 597
01/19/2019 12:11 L726 18.4 1
01/19/2019 12:11 Actua 18.4 64
01/19/2019 12:11 mortgage i 18.4 496
01/19/2019 12:10 disbursemen 18.4 33
01/19/2019 12:10 target 18.4 13
01/19/2019 12:10 ptd 18.4 9
01/19/2019 12:10 negative 18.4 22
01/19/2019 12:10 sECONDARY REGIST 18.4 1
01/19/2019 12:10 gfe last 18.4 6
01/19/2019 12:10 lqa 18.4 19
01/19/2019 12:10 54 18.4 442
01/19/2019 12:10 1134 18.4 4
01/19/2019 12:09 l88 18.4 1
01/19/2019 12:09 1531 18.4 3
01/19/2019 12:09 hoepa 18.4 4
01/19/2019 12:09 4483 18.4 1
01/19/2019 12:09 occupancy type 18.4 1
01/19/2019 12:08 v 18.4 12,028
01/19/2019 12:08 special 18.4 20
01/19/2019 12:08 fl0015 18.4 1
01/19/2019 12:08 1889 18.4 1
01/19/2019 12:08 rate lock due 18.4 22
01/19/2019 12:08 3091 18.4 2
01/19/2019 12:08 256 18.4 71
01/19/2019 12:08 2642 18.4 1
01/19/2019 12:08 VASUMM.X19 18.4 1
01/19/2019 12:08 ARM.FlrVerbgTyp 18.4 1
01/19/2019 12:08 337 18.4 134
01/19/2019 12:08 Deferre 18.4 1
01/19/2019 12:08 1145 18.4 4
01/19/2019 12:07 cOMPANY nAME 18.4 25
01/19/2019 12:07 ellie 18.4 381
01/19/2019 12:07 RE 18.4 20,401
01/19/2019 12:07 refundabl 18.4 18
01/19/2019 12:07 line 800 18.4 335
01/19/2019 12:07 1243 18.4 3
01/19/2019 12:07 subjec 18.4 349
01/19/2019 12:07 newhud.x1149 18.4 1
01/19/2019 12:06 url 18.4 24
01/19/2019 12:06 insurance 18.4 261
01/19/2019 12:06 trans details 18.4 421
01/19/2019 12:06 704 18.4 58
01/19/2019 12:06 4142 18.4 2
01/19/2019 12:06 acres 18.4 2
01/19/2019 12:06 3880 18.4 2
01/19/2019 12:05 mailing 18.4 24
01/19/2019 12:05 L 18.4 29,308
01/19/2019 12:05 SYS.X383 18.4 1
01/19/2019 12:05 ARM.FlrVerbgTyp 18.4 1
01/19/2019 12:04 su 18.4 3,064
01/19/2019 12:04 915 18.4 20
01/19/2019 12:04 RE88395.X316 18.4 1
01/19/2019 12:04 Borrower race 18.4 2
01/19/2019 12:04 prev 18.4 6,108
01/19/2019 12:04 4163 18.4 2
01/19/2019 12:04 late charge 18.4 9
01/19/2019 12:04 underwriting exception 18.4 3
01/19/2019 12:04 side 18.4 5,248
01/19/2019 12:04 VEND.X124 18.4 1
01/19/2019 12:04 MORNET.X40 18.4 1
01/19/2019 12:04 326 18.4 50
01/19/2019 12:04 Company - 18.4 139
01/19/2019 12:04 HELOC aM 18.4 7
01/19/2019 12:03 Loan purchas 18.4 9
01/19/2019 12:03 escrow 18.4 430
01/19/2019 12:03 FV.X 18.4 394
01/19/2019 12:03 2029 18.4 13
01/19/2019 12:03 document date 18.4 20
01/19/2019 12:03 negati 18.4 22
01/19/2019 12:02 bor 18.4 3,801
01/19/2019 12:02 ausf.x3 18.4 11
01/19/2019 12:02 joi 18.4 12
01/19/2019 12:02 1085 18.4 5
01/19/2019 12:02 1393 18.4 2
01/19/2019 12:02 prepaymen 18.4 48
01/19/2019 12:01 145 18.4 80
01/19/2019 12:01 MORNET. 18.4 90
01/19/2019 12:01 scenario 18.4 75
01/19/2019 12:01 4174 18.4 2
01/19/2019 12:01 2151 18.4 13
01/19/2019 12:01 2 18.4 20,522
01/19/2019 12:01 COMO 18.4 2
01/19/2019 12:01 Escrow amount 18.4 55
01/19/2019 12:01 confi 18.4 1,148
01/19/2019 12:01 745 18.4 32
01/19/2019 12:00 anti-stee 18.4 196
01/19/2019 12:00 4145 18.4 2
01/19/2019 12:00 FR0324 18.4 1
01/19/2019 12:00 tpoi 18.4 12
01/19/2019 12:00 retire 18.4 10
01/19/2019 12:00 sb 18.4 128
01/19/2019 12:00 settlement date 18.4 7
01/19/2019 12:00 NEWHUD.X1648 18.4 1
01/19/2019 12:00 1203 18.4 49
01/19/2019 12:00 master 18.4 26
01/19/2019 11:59 ms.statu 18.4 3
01/19/2019 11:59 141 18.4 101
01/19/2019 11:59 Liabil 18.4 149
01/19/2019 11:59 118 18.4 76
01/19/2019 11:59 altern 18.4 45
01/19/2019 11:59 3336 18.4 2
01/19/2019 11:59 USDA - Have You Ever Ob 18.4 4
01/19/2019 11:59 246 18.4 161
01/19/2019 11:59 appraisal 18.4 86
01/19/2019 11:59 lock appraised 18.4 21
01/19/2019 11:59 impounds 18.4 35
01/19/2019 11:59 vend.x43 18.4 11
01/19/2019 11:58 appraisal 18.4 83
01/19/2019 11:58 M 18.4 24,251
01/19/2019 11:58 608 18.4 24
01/19/2019 11:58 420 18.4 41
01/19/2019 11:58 Loan Closing fee 18.4 2
01/19/2019 11:58 clause 18.4 20
01/19/2019 11:58 application id 18.4 8
01/19/2019 11:57 1172 18.4 18
01/19/2019 11:57 4085 18.4 2
01/19/2019 11:57 1104 18.4 49
01/19/2019 11:57 disclosure.x564 18.4 1
01/19/2019 11:57 document type 18.4 26
01/19/2019 11:57 routin 18.4 12
01/19/2019 11:57 program name 18.4 3
01/19/2019 11:56 10 18.4 3,810
01/19/2019 11:56 underwriting conditions 18.4 30
01/19/2019 11:56 BANK 18.4 63
01/19/2019 11:56 alimony 18.4 13
01/19/2019 11:56 organiz 18.4 49
01/19/2019 11:56 ARM.IdxLkbckPrd 18.4 1
01/19/2019 11:56 email 18.4 138
01/19/2019 11:56 actual down payment 18.4 1
01/19/2019 11:56 2278 18.4 12
01/19/2019 11:55 e 18.4 31,835
01/19/2019 11:55 240 18.4 51
01/19/2019 11:55 1538 18.4 4
01/19/2019 11:55 mo 18.4 10,050
01/19/2019 11:55 policy 18.4 84
01/19/2019 11:54 MORTGAGE PROPERTY 18.4 31
01/19/2019 11:54 cert 18.4 57
01/19/2019 11:54 fl0018 18.4 1
01/19/2019 11:54 3159 18.4 2
01/19/2019 11:54 consent status 18.4 12
01/19/2019 11:54 1711 18.4 3
01/19/2019 11:54 seller cred 18.4 146
01/19/2019 11:54 FE0117 18.4 1
01/19/2019 11:54 risk 18.4 21
01/19/2019 11:53 closing adjus 18.4 304
01/19/2019 11:53 mi indicator 18.4 10
01/19/2019 11:53 est 18.4 8,433
01/19/2019 11:53 teamme 18.4 12
01/19/2019 11:53 borrower clo 18.4 341
01/19/2019 11:53 AUSF.X7 18.4 1
01/19/2019 11:52 VEND.X490 18.4 1
01/19/2019 11:52 appl 18.4 236
01/19/2019 11:52 le1.x4 18.4 11
01/19/2019 11:52 subject prop 18.4 339
01/19/2019 11:52 NEWHUD2.X3427 18.4 1
01/19/2019 11:51 175 18.4 54
01/19/2019 11:51 CASASRN.X88 18.4 1
01/19/2019 11:51 FL0002 18.4 1
01/19/2019 11:51 manufact 18.4 11
01/19/2019 11:51 disclosedgfe.snapshot.newhud.x1 18.4 38
01/19/2019 11:51 cumul 18.4 12
01/19/2019 11:51 hmda.x36 18.4 1
01/19/2019 11:51 total loan amount 18.4 8
01/19/2019 11:51 2276 18.4 13
01/19/2019 11:51 disclosure.x11 18.4 111
01/19/2019 11:51 3140 18.4 3
01/19/2019 11:51 VO 18.4 35
01/19/2019 11:51 Closing Disc 18.4 1,032
01/19/2019 11:51 commit 18.4 172
01/19/2019 11:50 Borrower POC Amou 18.4 121
01/19/2019 11:50 lcla 18.4 18
01/19/2019 11:50 hmda.x13 18.4 1
01/19/2019 11:50 appraisal fee 18.4 25
01/19/2019 11:50 estim 18.4 346
01/19/2019 11:50 co 18.4 8,959
01/19/2019 11:50 addtocdcontactinfo 18.4 19
01/19/2019 11:50 2830 18.4 2
01/19/2019 11:50 payments 18.4 26
01/19/2019 11:49 1070 18.4 5
01/19/2019 11:49 req 18.4 7,448
01/19/2019 11:49 total es 18.4 253
01/19/2019 11:49 pud 18.4 3
01/19/2019 11:49 UWC.OPENEX 18.4 1
01/19/2019 11:49 fold 18.4 2
01/19/2019 11:49 Loan Id 18.4 212
01/19/2019 11:49 2091 18.4 13
01/19/2019 11:49 bank 18.4 59
01/19/2019 11:48 qm.x42 18.4 1
01/19/2019 11:48 State Transfer 18.4 6
01/19/2019 11:48 cd5. 18.4 63
01/19/2019 11:48 203k 18.4 121
01/19/2019 11:48 1524 18.4 4
01/19/2019 11:48 employ 18.4 302
01/19/2019 11:48 NEWHUD2.X4610 18.4 1
01/19/2019 11:47 guid 18.4 27
01/19/2019 11:47 c 18.4 29,929
01/19/2019 11:47 sel 18.4 4,689
01/19/2019 11:47 identifier 18.4 32
01/19/2019 11:47 inspectio 18.4 21
01/19/2019 11:47 gift funds 18.4 2
01/19/2019 11:46 credit 18.4 473
01/19/2019 11:46 su 18.4 3,914
01/19/2019 11:46 beacon 18.4 172
01/19/2019 11:46 4175 18.4 2
01/19/2019 11:46 Subm 18.4 58
01/19/2019 11:46 evaluated 18.4 28
01/19/2019 11:46 manufactured home 18.4 3
01/19/2019 11:46 Disclosure.X874 18.4 1
01/19/2019 11:45 CD eligibility 18.4 1
01/19/2019 11:45 PAYMENT FREQUENCY 18.4 3
01/19/2019 11:45 Mavent Compliance 18.4 18
01/19/2019 11:45 colla 18.4 12
01/19/2019 11:45 in 18.4 14,936
01/19/2019 11:45 underwriting clear to close 18.4 1
01/19/2019 11:45 154 18.4 71
01/19/2019 11:45 to close 18.4 40
01/19/2019 11:45 taken 18.4 6
01/19/2019 11:45 adjust 18.4 9,985
01/19/2019 11:44 1396 18.4 3
01/19/2019 11:44 1372 18.4 2
01/19/2019 11:44 act 18.4 1,443
01/19/2019 11:44 Loan Type 18.4 98
01/19/2019 11:44 guid 18.4 66
01/19/2019 11:44 impounds 18.4 35
01/19/2019 11:44 3975 18.4 2
01/19/2019 11:43 nmls.x13 18.4 1
01/19/2019 11:43 1040 18.4 35
01/19/2019 11:43 4009 18.4 2
01/19/2019 11:43 ginnie 18.4 22
01/19/2019 11:43 1841 18.4 2
01/19/2019 11:42 subject Property Address 18.4 13
01/19/2019 11:42 997 18.4 11
01/19/2019 11:42 hmda.x11 18.4 2
01/19/2019 11:42 disbursemen 18.4 73
01/19/2019 11:42 aus dat 18.4 37
01/19/2019 11:42 30 18.4 1,527
01/19/2019 11:42 Status 18.4 208
01/19/2019 11:41 Lock D 18.4 10,495
01/19/2019 11:41 Check 18.4 403
01/19/2019 11:41 AUS submitted 18.4 3
01/19/2019 11:41 apprais 18.4 135
01/19/2019 11:40 valida 18.4 3
01/19/2019 11:40 996 18.4 12
01/19/2019 11:40 upb 18.4 3
01/19/2019 11:40 BE0005 18.4 2
01/19/2019 11:40 2860 18.4 2
01/19/2019 11:40 checkbox 18.4 46
01/19/2019 11:39 VARRR 18.4 11
01/19/2019 11:39 1244 18.4 3
01/19/2019 11:39 187 18.4 55
01/19/2019 11:39 202 18.4 119
01/19/2019 11:39 was th 18.4 14
01/19/2019 11:39 104 18.4 188
01/19/2019 11:39 Joint Asset 18.4 1
01/19/2019 11:39 Jointly 18.4 1
01/19/2019 11:38 1174 18.4 4
01/19/2019 11:38 IR 18.4 2,088
01/19/2019 11:38 alien 18.4 2
01/19/2019 11:38 caivrs 18.4 4
01/19/2019 11:38 108 18.4 280
01/19/2019 11:38 land 18.4 68
01/19/2019 11:38 Seller Paid Closing 18.4 340
01/19/2019 11:38 rate 18.4 11,899
01/19/2019 11:38 904 18.4 81
01/19/2019 11:38 AE 18.4 768
01/19/2019 11:38 update 18.4 17
01/19/2019 11:38 c 18.4 27,032
01/19/2019 11:37 mornet.x101 18.4 1
01/19/2019 11:37 1204 18.4 47
01/19/2019 11:37 hmda.x56 18.4 1
01/19/2019 11:37 borr cert own mo 18.4 1
01/19/2019 11:37 ass 18.4 301
01/19/2019 11:37 3198 18.4 2
01/19/2019 11:37 applicant 18.4 18
01/19/2019 11:37 0 18.4 13,298
01/19/2019 11:37 1602 18.4 3
01/19/2019 11:37 b 18.4 17,009
01/19/2019 11:36 cond 18.4 277
01/19/2019 11:36 364 18.4 46
01/19/2019 11:36 buy side 18.4 3,253
01/19/2019 11:36 Insurance Calculation Borr MI Termin 18.4 1
01/19/2019 11:36 mana 18.4 376
01/19/2019 11:36 MI 18.4 1,158
01/19/2019 11:36 364 18.4 58
01/19/2019 11:36 fannie mae property c 18.4 23
01/19/2019 11:36 ordered 18.4 22
01/19/2019 11:36 US 18.4 4,171
01/19/2019 11:35 CLOSING 18.4 2,119
01/19/2019 11:35 newhud.x1299 18.4 1
01/19/2019 11:35 FR030 18.4 4
01/19/2019 11:35 sales pric 18.4 12
01/19/2019 11:34 to 18.4 4,881
01/19/2019 11:34 2001 18.4 2
01/19/2019 11:34 Loan Status 18.4 53
01/19/2019 11:34 CASASRN.X88 18.4 1
01/19/2019 11:34 1531 18.4 4
01/19/2019 11:34 3540 18.4 2
01/19/2019 11:34 date of birth 18.4 1
01/19/2019 11:34 Freddie Mac HELOC Actual Bal 18.4 13
01/19/2019 11:34 Closin 18.4 2,119
01/19/2019 11:34 205 18.4 97
01/19/2019 11:34 msa 18.4 3
01/19/2019 11:33 subject indic 18.4 6
01/19/2019 11:33 project 18.4 214
01/19/2019 11:33 cancel 18.4 34
01/19/2019 11:32 Division 18.4 7
01/19/2019 11:32 cd5.x67 18.4 1
01/19/2019 11:32 313 18.4 87
01/19/2019 11:32 consu 18.4 49
01/19/2019 11:32 CASASRN.X88 18.4 1
01/19/2019 11:32 Borr Employer Date Terminated 18.4 2
01/19/2019 11:32 Appraisal type 18.4 5
01/19/2019 11:32 DENIAL.X69 18.4 1
01/19/2019 11:31 note date 18.4 8
01/19/2019 11:31 both 18.4 3
01/19/2019 11:31 T 18.4 32,362
01/19/2019 11:31 2295 18.4 13
01/19/2019 11:31 notices.x51 18.4 1
01/19/2019 11:31 lot 18.4 8
01/19/2019 11:31 lo 18.4 17,291
01/19/2019 11:31 ma 18.4 4,553
01/19/2019 11:31 File contacts 18.4 964
01/19/2019 11:31 AUSTRA 18.4 192
01/19/2019 11:31 loan 18.4 1,896
01/19/2019 11:31 835 18.4 63
01/19/2019 11:30 728 18.4 22
01/19/2019 11:30 cd4.x2 18.4 6
01/19/2019 11:30 Funding Funder 18.4 3
01/19/2019 11:30 Fee Details - Line 18.4 3,681
01/19/2019 11:29 (Pre 18.4 6,974
01/19/2019 11:29 servicing release 18.4 2
01/19/2019 11:29 survey fees 18.4 9
01/19/2019 11:29 monthly pay 18.4 19
01/19/2019 11:29 salary 18.4 3
01/19/2019 11:29 USDA.X123 18.4 1
01/19/2019 11:29 newhud.x225 18.4 1
01/19/2019 11:29 loan pu 18.4 52
01/19/2019 11:28 FR0112 18.4 1
01/19/2019 11:28 1531 18.4 4
01/19/2019 11:28 VEND.X2 18.4 104
01/19/2019 11:27 denial.x31 18.4 1
01/19/2019 11:27 Set 18.4 327
01/19/2019 11:27 Property Number 18.4 4
01/19/2019 11:27 147 18.4 62
01/19/2019 11:27 Hired 18.4 2
01/19/2019 11:27 113 18.4 150
01/19/2019 11:27 uldd.x138 18.4 1
01/19/2019 11:27 752 18.4 33
01/19/2019 11:26 morne 18.4 120
01/19/2019 11:26 1481 18.4 4
01/19/2019 11:26 escrow 18.4 388
01/19/2019 11:26 Broker Di 18.4 225
01/19/2019 11:26 DENIAL.X3 18.4 10
01/19/2019 11:26 purchase advice 18.4 190
01/19/2019 11:26 Finance 18.4 416
01/19/2019 11:26 4184 18.4 2
01/19/2019 11:26 credit rpt 18.4 7
01/19/2019 11:25 loan? 18.4 11
01/19/2019 11:25 fnma 18.4 1
01/19/2019 11:25 3200 18.4 2
01/19/2019 11:25 3380 18.4 13
01/19/2019 11:25 NMLS.X11 18.4 1
01/19/2019 11:24 Initial Payment 18.4 12
01/19/2019 11:24 Construction loan 18.4 14
01/19/2019 11:24 descr 18.4 877
01/19/2019 11:24 670 18.4 24
01/19/2019 11:24 borr 18.4 3,358
01/19/2019 11:24 801 paid by 18.4 64
01/19/2019 11:24 lender iD 18.4 265
01/19/2019 11:23 lock ( 18.4 10,447
01/19/2019 11:23 newhud.x1178 18.4 1
01/19/2019 11:23 cd due date 18.4 2
01/19/2019 11:23 Subject Property Type Fannie Mae 18.4 12
01/19/2019 11:23 residen 18.4 78
01/19/2019 11:23 2108 18.4 12
01/19/2019 11:23 2306 18.4 2
01/19/2019 11:23 NEWHUD 18.4 5,705
01/19/2019 11:23 closin 18.4 2,119
01/19/2019 11:23 processor phone 18.4 4
01/19/2019 11:22 3355 18.4 2
01/19/2019 11:22 1107 18.4 11
01/19/2019 11:22 es 18.4 14,856
01/19/2019 11:22 1537 18.4 3
01/19/2019 11:22 500 18.4 35
01/19/2019 11:22 BE0023 18.4 1
01/19/2019 11:21 596 18.4 12
01/19/2019 11:21 663 18.4 33
01/19/2019 11:21 3753 18.4 13
01/19/2019 11:21 linke 18.4 1
01/19/2019 11:21 COND.PTF 18.4 1
01/19/2019 11:20 closing.ntendrs 18.4 28
01/19/2019 11:20 calculation 18.4 148
01/19/2019 11:20 cert 18.4 57
01/19/2019 11:20 veteran 18.4 51
01/19/2019 11:20 financed 18.4 325
01/19/2019 11:20 VA lender id 18.4 3
01/19/2019 11:20 service.x8 18.4 10
01/19/2019 11:20 Price Lock 18.4 5,213
01/19/2019 11:19 po 18.4 2,977
01/19/2019 11:19 4130 18.4 2
01/19/2019 11:19 Mos Reserve Required 18.4 3
01/19/2019 11:19 USDA - Have 18.4 4
01/19/2019 11:19 fee borr 18.4 1,446
01/19/2019 11:19 standa 18.4 47
01/19/2019 11:19 origination 18.4 87
01/19/2019 11:18 38 18.4 1,282
01/19/2019 11:18 Loan Officer 18.4 161
01/19/2019 11:18 FM1084.x54 18.4 1
01/19/2019 11:18 1881 18.4 1
01/19/2019 11:18 AUStracki 18.4 192
01/19/2019 11:18 previous 18.4 7,061
01/19/2019 11:17 563 18.4 13
01/19/2019 11:17 1002 18.4 46
01/19/2019 11:17 1768 18.4 2
01/19/2019 11:17 USDA - Have You Ever Ob 18.4 4
01/19/2019 11:17 mor 18.4 1,643
01/19/2019 11:17 pres 18.4 71
01/19/2019 11:17 CD 18.4 1,308
01/19/2019 11:17 REQUESTE 18.4 121
01/19/2019 11:17 1176 18.4 4
01/19/2019 11:17 SOCIAL S 18.4 20
01/19/2019 11:16 lender NMLS 18.4 8
01/19/2019 11:16 NEWHUD2.X1224 18.4 1
01/19/2019 11:16 L72 18.4 3
01/19/2019 11:16 bottom ratio 18.4 16
01/19/2019 11:16 File contacts 18.4 972
01/19/2019 11:16 State Specific Disclosure 18.4 71
01/19/2019 11:16 financial name 18.4 4
01/19/2019 11:16 Curr 18.4 304
01/19/2019 11:15 link to liability 18.4 1
01/19/2019 11:15 ins 18.4 691
01/19/2019 11:15 4006 18.4 2
01/19/2019 11:15 credit auth 18.4 14
01/19/2019 11:15 final closing d 18.4 25
01/19/2019 11:15 heloc 18.4 49
01/19/2019 11:15 fees in 18.4 1,533
01/19/2019 11:15 294 18.4 170
01/19/2019 11:15 Loa 18.4 1,919
01/19/2019 11:15 FR0315 18.4 1
01/19/2019 11:15 nsurance 18.4 261
01/19/2019 11:15 contract date 18.4 6
01/19/2019 11:15 First Time Homebuye 18.4 24
01/19/2019 11:14 buyer 18.4 83
01/19/2019 11:14 expe 18.4 292
01/19/2019 11:14 cd3.x123 18.4 5
01/19/2019 11:14 CASASRN.X152 18.4 1
01/19/2019 11:14 4119 18.4 2
01/19/2019 11:14 903 18.4 71
01/19/2019 11:13 UCD.X1 18.4 1
01/19/2019 11:13 CA 18.4 2,212
01/19/2019 11:13 DISCLOSURE.X255 18.4 1
01/19/2019 11:13 x733 18.4 3
01/19/2019 11:13 newhud.x1301 18.4 1
01/19/2019 11:13 Interest 18.4 292
01/19/2019 11:13 Subordin 18.4 60
01/19/2019 11:13 s 18.4 29,651
01/19/2019 11:12 page 1 18.4 538
01/19/2019 11:12 other 18.4 1,093
01/19/2019 11:12 vend.x139 18.4 1
01/19/2019 11:12 1145 18.4 4
01/19/2019 11:12 sellers agent 18.4 13
01/19/2019 11:12 1006 18.4 40
01/19/2019 11:11 Unpaid P 18.4 333
01/19/2019 11:11 hmda.x44 18.4 1
01/19/2019 11:11 prior 18.4 35
01/19/2019 11:11 EXISTING LOAN 18.4 77
01/19/2019 11:11 4159 18.4 1
01/19/2019 11:11 HMDA.X 18.4 11
01/19/2019 11:11 pool 18.4 63
01/19/2019 11:11 3292 18.4 2
01/19/2019 11:11 SAVING 18.4 8
01/19/2019 11:11 bond 18.4 7
01/19/2019 11:11 fe0115 18.4 12
01/19/2019 11:10 automob 18.4 7
410 of 34,519 Fields in Encompass 18.4 contain 'fre'
Type Field ID Format Opts Description First Chng
Standard 353 DECIMAL_3 Freddie Mac Loan To Value (LTV) 14.2
Standard 975 DECIMAL_3 Freddie Mac Total Loan to Value (TLTV) 14.2
Standard 977 STRING Freddie Mac Lender County
Standard 1290 YN 2 Freddie Mac Lender Rate Adj Convertible 8.1
Standard 2847 STRING 4 Freddie Mac Counsel Type
Standard 3291 STRING REGZ Payment Frequency Type Description
Standard 3846 STRING Lock Request Freddie Mac HELOC Actual Bal 9.1
Standard 3933 STRING Correspondent Loan Status - Late Fee - Frequency 15.1
Standard AUS.X10 STRING AUS Tracking - Doc Class (Freddie) 9.1
Standard AUS.X114 STRING AUS Tracking - Freddie Mac - AUS Transaction # 9.1 16.1
Standard AUS.X115 STRING AUS Tracking - Freddie Mac - Loan Prospector ID 9.1 16.1
Standard AUS.X116 STRING AUS Tracking - Freddie Mac - Transaction ID 9.1 16.1
Standard AUS.X117 STRING AUS Tracking - Freddie Mac - Risk Class 9.1 16.1
Standard AUS.X118 STRING AUS Tracking - Freddie Mac - Documentation Level 9.1 16.1
Standard AUS.X119 STRING AUS Tracking - Freddie Mac - Mortgage Type 9.1 16.1
Standard AUS.X120 STRING AUS Tracking - Freddie Mac - Purchase Eligibility 9.1 16.1
Standard AUS.X121 STRING AUS Tracking - Freddie Mac - AUS Status 9.1 16.1
Standard AUS.X122 STRING AUS Tracking - Freddie Mac - Loan Processing Stage 9.1 16.1
Standard AUS.X123 STRING AUS Tracking - Freddie Mac - Assessment Type 9.1 16.1
Standard AUS.X124 STRING AUS Tracking - Freddie Mac - LP Version 9.1 16.1
Standard AUS.X125 STRING AUS Tracking - Freddie Mac - Appraisal Type/MAF 9.1 16.1
Standard AUS.X126 STRING AUS Tracking - Freddie Mac - MI Decision 9.1 16.1
Standard AUS.X127 STRING AUS Tracking - Freddie Mac - Accept Plus Eligible 9.1 16.1
Standard AUS.X128 STRING AUS Tracking - Freddie Mac - Indicator Score 9.1 16.1
Standard AUS.X129 STRING AUS Tracking - Freddie Mac - Selected Repository 9.1 16.1
Standard AUS.X130 STRING AUS Tracking - Freddie Mac - Selected Borrower 9.1 16.1
Standard AUS.X131 DATE AUS Tracking - Freddie Mac - LP Assmt. Exp. Date 9.1 16.1
Standard AUS.X132 STRING AUS Tracking - Freddie Mac - Borrower Experian/FICO 9.1 16.1
Standard AUS.X133 STRING AUS Tracking - Freddie Mac - Borrower Trans Union/Empirica 9.1 16.1
Standard AUS.X134 STRING AUS Tracking - Freddie Mac - Borrower Equifax/BEACON 9.1 16.1
Standard AUS.X135 STRING AUS Tracking - Freddie Mac - CoBorrower Experian FICO 9.1 16.1
Standard AUS.X136 STRING AUS Tracking - Freddie Mac - CoBorrower Trans Union/Empirica 9.1 16.1
Standard AUS.X137 STRING AUS Tracking - Freddie Mac - CoBorrower Equifax BEACON 9.1 16.1
Standard AUS.X138 STRING AUS Tracking - Freddie Mac - Present Address 9.1 16.1
Standard AUS.X139 STRING AUS Tracking - Freddie Mac - Present Address City 9.1 16.1
Standard AUS.X140 STATE AUS Tracking - Freddie Mac - Present Address State 9.1 16.1
Standard AUS.X141 ZIPCODE AUS Tracking - Freddie Mac - Present Address Zipcode 9.1 16.1
Standard AUS.X142 STRING AUS Tracking - Freddie Mac - Loan Application # 9.1 16.1
Standard AUS.X143 INTEGER AUS Tracking - Freddie Mac - Balloon Term 9.1 16.1
Standard AUS.X144 INTEGER AUS Tracking - Freddie Mac - Amortization Months 9.1 16.1
Standard AUS.X145 DECIMAL_3 AUS Tracking - Freddie Mac - ARM Qualifying Rate 9.1 16.1
Standard AUS.X146 DECIMAL_3 AUS Tracking - Freddie Mac - TLTV 9.1 16.1
Standard AUS.X147 DECIMAL_3 AUS Tracking - Freddie Mac - HTLTV 9.1 16.1
Standard AUS.X148 DECIMAL_3 AUS Tracking - Freddie Mac - Housing Ratio 9.1 16.1
Standard AUS.X149 DECIMAL_3 AUS Tracking - Freddie Mac - Debt Ratio 9.1 16.1
Standard AUS.X150 DECIMAL_3 AUS Tracking - Freddie Mac - Occupant Housing Ratio 9.1 16.1
Standard AUS.X151 DECIMAL_3 AUS Tracking - Freddie Mac - Occupant Debt Ratio 9.1 16.1
Standard AUS.X152 STRING AUS Tracking - Freddie Mac - Neg. Amortization Type 9.1 16.1
Standard AUS.X153 STRING AUS Tracking - Freddie Mac - Temporary Subsidy Buydown 9.1 16.1
Standard AUS.X154 STRING AUS Tracking - Freddie Mac - New Construction 9.1 16.1
Standard AUS.X155 STRING AUS Tracking - Freddie Mac - Affordable Product Type 9.1 16.1
Standard AUS.X156 STRING AUS Tracking - Freddie Mac - Offering Identifier 9.1 16.1
Standard AUS.X157 STRING AUS Tracking - Freddie Mac - Intended Use of Property 9.1 16.1
Standard AUS.X158 DECIMAL_2 AUS Tracking - Freddie Mac - Cash Out Amount 9.1 16.1
Standard AUS.X159 DECIMAL_2 AUS Tracking - Freddie Mac - Reserves 9.1 16.1
Standard AUS.X160 DECIMAL_2 AUS Tracking - Freddie Mac - Proposed Housing (PITI) 9.1 16.1
Standard AUS.X161 DECIMAL_2 AUS Tracking - Freddie Mac - Present Housing Expense 9.1 16.1
Standard AUS.X162 DECIMAL_2 AUS Tracking - Freddie Mac - Max Mortgage Limit 9.1 16.1
Standard AUS.X163 STRING AUS Tracking - Freddie Mac - Sales Concessions 9.1 16.1
Standard AUS.X164 STRING AUS Tracking - Freddie Mac - Originating Company 9.1 16.1
Standard AUS.X165 STRING AUS Tracking - Freddie Mac - Submitting Company 9.1 16.1
Standard AUS.X166 STRING AUS Tracking - Freddie Mac - Seller Number 9.1 16.1
Standard AUS.X167 STRING AUS Tracking - Freddie Mac - TPO Number 9.1 16.1
Standard AUS.X168 STRING AUS Tracking - Freddie Mac - Date Time Requested 9.1 16.1
Standard AUS.X169 STRING AUS Tracking - Freddie Mac - Date Time Assessed 9.1 16.1
Standard AUS.X170 STRING AUS Tracking - Freddie Mac - # of Submissions 9.1 16.1
Standard AUS.X171 STRING AUS Tracking - Freddie Mac - NOTP Number 9.1 16.1
Standard AUS.X172 STRING 7 AUS Tracking - Freddie Mac - Property Type 9.1 16.1
Standard AUS.X175 STRING AUS Tracking - Freddie Mac LQA - Data Compare Result 16.2
Standard AUS.X176 STRING AUS Tracking - Freddie Mac LQA - LP Key 16.2
Standard AUS.X177 DATETIME AUS Tracking - Freddie Mac LQA - Submission DateTime 16.2
Standard AUS.X178 STRING AUS Tracking - Freddie Mac LQA - Data Compare Field Name 16.2
Standard AUS.X179 STRING AUS Tracking - Freddie Mac LQA - Data Compare Field Conclusion 16.2
Standard AUS.X180 STRING AUS Tracking - Freddie Mac LQA - Risk Assessment Key 16.2
Standard AUS.X181 STRING AUS Tracking - Freddie Mac LQA - Credit Risk Assessment Conclusion 16.2
Standard AUS.X182 STRING AUS Tracking - Freddie Mac LQA - Purchase Eligibility Result 16.2
Standard AUS.X183 STRING AUS Tracking - Freddie Mac LQA - Collateral Rep and Warranty Service Conclusion 16.2
Standard AUS.X184 STRING 1 AUS Tracking - Freddie Mac LCLA - Evaluated Service Type 1 16.2
Standard AUS.X185 STRING AUS Tracking - Freddie Mac LCLA - Evaluated Service Conclusion 1 16.2
Standard AUS.X186 STRING 1 AUS Tracking - Freddie Mac LCLA - Evaluated Service Type 2 16.2
Standard AUS.X187 STRING AUS Tracking - Freddie Mac LCLA - Evaluated Service Conclusion 2 16.2
Standard AUS.X188 STRING 1 AUS Tracking - Freddie Mac LCLA - Evaluated Service Type 3 16.2
Standard AUS.X189 STRING AUS Tracking - Freddie Mac LCLA - Evaluated Service Conclusion 3 16.2
Standard AUS.X190 STRING AUS Tracking - Freddie Mac LCLA - Evaluated Service Type 4 16.2
Standard AUS.X191 STRING AUS Tracking - Freddie Mac LCLA - LCLAEvaluated Service Conclusion 4 16.2
Standard AUS.X55 INTEGER AUS Tracking - Fannie Mae - Payment Frequency 9.1 16.1
Standard AUSF.X22 STRING Last Snapshot - AUS Tracking - Freddie Mac LPA - LoanProcessingInformation (HA) 17.3
Standard AUSF.X23 STRING Last Snapshot - AUS Tracking - Freddie Mac LPA - LoanProcessingInformation (GO) 17.3
Standard AUSF.X24 STRING Last Snapshot - AUS Tracking - Freddie Mac LPA - LoanProcessingInformation (D4) 17.3
Standard AUSF.X25 STRING Last Snapshot - AUS Tracking - Freddie Mac LPA - DocumentationGuidelineMessages (8Y) 17.3
Standard AUSF.X26 STRING Last Snapshot - AUS Tracking - Freddie Mac LPA - DocumentationGuidelineMessages (CN) 17.3
Standard AUSF.X27 STRING Last Snapshot - AUS Tracking - Freddie Mac LPA - DocumentationGuidelineMessages (CP) 17.3
Standard AUSF.X28 STRING Last Snapshot - AUS Tracking - Freddie Mac LPA - DocumentationGuidelineMessages (CV) 17.3
Standard AUSF.X29 STRING Last Snapshot - AUS Tracking - Freddie Mac LPA - DocumentationGuidelineMessages (CZ) 17.3
Standard AUSF.X30 STRING Last Snapshot - AUS Tracking - Freddie Mac LPA - DocumentationGuidelineMessages (X1) 17.3
Standard AUSF.X31 STRING Last Snapshot - AUS Tracking - Freddie Mac LPA - DocumentationGuidelineMessages (X3) 17.3
Standard AUSF.X32 STRING Last Snapshot - AUS Tracking - Freddie Mac LPA - DocumentationGuidelineMessages (X5) 17.3
Standard AUSF.X33 STRING Last Snapshot - AUS Tracking - Freddie Mac LPA - DocumentationGuidelineMessages (X7) 17.3
Standard AUSF.X34 STRING Last Snapshot - AUS Tracking - Freddie Mac LPA - DocumentationGuidelineMessages (XA) 17.3
Standard AUSF.X35 STRING Last Snapshot - AUS Tracking - Freddie Mac LPA - DocumentationGuidelineMessages (XM) 17.3
Standard AUSF.X36 STRING Last Snapshot - AUS Tracking - Freddie Mac LPA - DocumentationGuidelineMessages (XP) 17.3
Standard AUSF.X37 STRING Last Snapshot - AUS Tracking - Freddie Mac LPA - DocumentationGuidelineMessages (XR) 17.3
Standard AUSF.X38 STRING Last Snapshot - AUS Tracking - Freddie Mac LPA - DocumentationGuidelineMessages (XT) 17.3
Standard AUSF.X39 STRING Last Snapshot - AUS Tracking - Freddie Mac LPA - DocumentationGuidelineMessages (Y8) 17.3
Standard AUSF.X40 STRING Last Snapshot - AUS Tracking - Freddie Mac LPA - DocumentationGuidelineMessages (YG) 17.3
Standard AUSF.X41 STRING Last Snapshot - AUS Tracking - Freddie Mac LPA - DocumentationGuidelineMessages (YJ) 17.3
Standard AUSF.X42 STRING Last Snapshot - AUS Tracking - Freddie Mac LPA - LoanProcessingInformation (MA) 17.3
Standard AUSF.X43 STRING Last Snapshot - AUS Tracking - Freddie Mac LPA - LoanProcessingInformation (LE) 17.3
Standard AUSF.X44 STRING Last Snapshot - AUS Tracking - Freddie Mac LPA - LoanProcessingInformation (LF) 17.3
Standard AUSF.X45 STRING Last Snapshot - AUS Tracking - Freddie Mac LPA - DocumentationGuidelineMessages (DZ) 17.3
Standard AUSF.X46 STRING Last Snapshot - AUS Tracking - Freddie Mac LPA - DocumentationGuidelineMessages (QJ) 17.3
Standard AUSF.X47 STRING Last Snapshot - AUS Tracking - Freddie Mac LPA - DocumentationGuidelineMessages (JF) 17.3
Standard AUSF.X48 STRING Last Snapshot - AUS Tracking - Freddie Mac LPA - DocumentationGuidelineMessages (QN) 17.3
Standard AUSF.X49 STRING Last Snapshot - AUS Tracking - Freddie Mac LPA - DocumentationGuidelineMessages (U7) 17.3
Standard AUSF.X5 STRING AUS Tracking - Latest Submission - Doc Class (Freddie) 9.1
Standard AUSF.X50 STRING Last Snapshot - AUS Tracking - Freddie Mac LPA - DocumentationGuidelineMessages (QQ) 17.3
Standard AUSF.X51 STRING Last Snapshot - AUS Tracking - Freddie Mac LPA - DocumentationGuidelineMessages (E5) 17.3
Standard AUSF.X52 STRING Last Snapshot - AUS Tracking - Freddie Mac LPA - DocumentationGuidelineMessages (QS) 17.3
Standard AUSF.X53 STRING Last Snapshot - AUS Tracking - Freddie Mac LPA - DocumentationGuidelineMessages (IM) 17.3
Standard AUSF.X54 STRING Last Snapshot - AUS Tracking - Freddie Mac LPA - DocumentationGuidelineMessages (IQ) 17.3
Standard AUSF.X55 STRING Last Snapshot - AUS Tracking - Freddie Mac LPA - DocumentationGuidelineMessages (4V) 17.3
Standard AUSF.X56 STRING Last Snapshot - AUS Tracking - Freddie Mac LPA - DocumentationGuidelineMessages (5C) 17.3
Standard AUSF.X57 STRING Last Snapshot - AUS Tracking - Freddie Mac LPA - DocumentationGuidelineMessages (CY) 17.3
Standard AUSF.X58 STRING Last Snapshot - AUS Tracking - Freddie Mac LPA - DocumentationGuidelineMessages (DP) 17.3
Standard AUSF.X59 STRING Last Snapshot - AUS Tracking - Freddie Mac LPA - DocumentationGuidelineMessages (YY) 17.3
Standard AUSF.X60 STRING Last Snapshot - AUS Tracking - Freddie Mac LPA - DocumentationGuidelineMessages (YZ) 17.3
Standard AUSF.X62 STRING AUS Tracking - Freddie Mac LPA - Asset Representation And Warranty Relief Eligibility Type 18.1
Standard AUSF.X63 STRING AUS Tracking - Freddie Mac LPA - Loan Processing Information - Message Code 24 18.1
Standard AUSF.X64 STRING AUS Tracking - Freddie Mac LPA - Loan Processing Information - Message Code 31 18.1
Standard AUSF.X65 STRING AUS Tracking - Freddie Mac LPA - Loan Processing Information - Message Code 32 18.1
Standard AUSF.X66 STRING AUS Tracking - Freddie Mac LPA - Loan Processing Information - Message Code 33 18.1
Standard AUSF.X67 STRING AUS Tracking - Freddie Mac LPA - Loan Processing Information - Message Code 97 18.1
Standard AUSF.X68 STRING AUS Tracking - Freddie Mac LPA - Loan Processing Information - Message Code JR 18.1
Standard AUSF.X69 STRING AUS Tracking - Freddie Mac LPA - Loan Processing Information - Message Code JT 18.1
Standard AUSF.X70 STRING AUS Tracking - Freddie Mac LCLA - UCD Requirement 18.1
Virtual AUSTRACKING.AUS.X10 STRING Last Snapshot - AUS Tracking - Doc Class (Freddie) 9.1 15.1 15.2 16.1
Virtual AUSTRACKING.AUS.X114 STRING Last Snapshot - AUS Tracking - Freddie Mac - AUS Transaction # 15.1 15.2 16.1
Virtual AUSTRACKING.AUS.X115 STRING Last Snapshot - AUS Tracking - Freddie Mac - Loan Prospector ID 15.1 15.2 16.1
Virtual AUSTRACKING.AUS.X116 STRING Last Snapshot - AUS Tracking - Freddie Mac - Transaction ID 15.1 15.2 16.1
Virtual AUSTRACKING.AUS.X117 STRING Last Snapshot - AUS Tracking - Freddie Mac - Risk Class 15.1 15.2 16.1
Virtual AUSTRACKING.AUS.X118 STRING Last Snapshot - AUS Tracking - Freddie Mac - Documentation Level 15.1 15.2 16.1
Virtual AUSTRACKING.AUS.X119 STRING Last Snapshot - AUS Tracking - Freddie Mac - Mortgage Type 15.1 15.2 16.1
Virtual AUSTRACKING.AUS.X120 STRING Last Snapshot - AUS Tracking - Freddie Mac - Purchase Eligibility 15.1 15.2 16.1
Virtual AUSTRACKING.AUS.X121 STRING Last Snapshot - AUS Tracking - Freddie Mac - AUS Status 15.1 15.2 16.1
Virtual AUSTRACKING.AUS.X122 STRING Last Snapshot - AUS Tracking - Freddie Mac - Loan Processing Stage 15.1 15.2 16.1
Virtual AUSTRACKING.AUS.X123 STRING Last Snapshot - AUS Tracking - Freddie Mac - Assessment Type 15.1 15.2 16.1
Virtual AUSTRACKING.AUS.X124 STRING Last Snapshot - AUS Tracking - Freddie Mac - LP Version 15.1 15.2 16.1
Virtual AUSTRACKING.AUS.X125 STRING Last Snapshot - AUS Tracking - Freddie Mac - Appraisal Type/MAF 15.1 15.2 16.1
Virtual AUSTRACKING.AUS.X126 STRING Last Snapshot - AUS Tracking - Freddie Mac - MI Decision 15.1 15.2 16.1
Virtual AUSTRACKING.AUS.X127 STRING Last Snapshot - AUS Tracking - Freddie Mac - Accept Plus Eligible 15.1 15.2 16.1
Virtual AUSTRACKING.AUS.X128 STRING Last Snapshot - AUS Tracking - Freddie Mac - Indicator Score 15.1 15.2 16.1
Virtual AUSTRACKING.AUS.X129 STRING Last Snapshot - AUS Tracking - Freddie Mac - Selected Repository 15.1 15.2 16.1
Virtual AUSTRACKING.AUS.X130 STRING Last Snapshot - AUS Tracking - Freddie Mac - Selected Borrower 15.1 15.2 16.1
Virtual AUSTRACKING.AUS.X131 DATE Last Snapshot - AUS Tracking - Freddie Mac - LP Assmt. Exp. Date 15.1 15.2 16.1
Virtual AUSTRACKING.AUS.X132 STRING Last Snapshot - AUS Tracking - Freddie Mac - Borrower Experian/FICO 15.1 15.2 16.1
Virtual AUSTRACKING.AUS.X133 STRING Last Snapshot - AUS Tracking - Freddie Mac - Borrower Trans Union/Empirica 15.1 15.2 16.1
Virtual AUSTRACKING.AUS.X134 STRING Last Snapshot - AUS Tracking - Freddie Mac - Borrower Equifax/BEACON 15.1 15.2 16.1
Virtual AUSTRACKING.AUS.X135 STRING Last Snapshot - AUS Tracking - Freddie Mac - CoBorrower Experian FICO 15.1 15.2 16.1
Virtual AUSTRACKING.AUS.X136 STRING Last Snapshot - AUS Tracking - Freddie Mac - CoBorrower Trans Union/Empirica 15.1 15.2 16.1
Virtual AUSTRACKING.AUS.X137 STRING Last Snapshot - AUS Tracking - Freddie Mac - CoBorrower Equifax BEACON 15.1 15.2 16.1
Virtual AUSTRACKING.AUS.X138 STRING Last Snapshot - AUS Tracking - Freddie Mac - Present Address 15.1 15.2 16.1
Virtual AUSTRACKING.AUS.X139 STRING Last Snapshot - AUS Tracking - Freddie Mac - Present Address City 15.1 15.2 16.1
Virtual AUSTRACKING.AUS.X140 STATE Last Snapshot - AUS Tracking - Freddie Mac - Present Address State 15.1 15.2 16.1
Virtual AUSTRACKING.AUS.X141 ZIPCODE Last Snapshot - AUS Tracking - Freddie Mac - Present Address Zipcode 15.1 15.2 16.1
Virtual AUSTRACKING.AUS.X142 STRING Last Snapshot - AUS Tracking - Freddie Mac - Loan Application # 15.1 15.2 16.1
Virtual AUSTRACKING.AUS.X143 INTEGER Last Snapshot - AUS Tracking - Freddie Mac - Balloon Term 15.1 15.2 16.1
Virtual AUSTRACKING.AUS.X144 INTEGER Last Snapshot - AUS Tracking - Freddie Mac - Amortization Months 15.1 15.2 16.1
Virtual AUSTRACKING.AUS.X145 DECIMAL_3 Last Snapshot - AUS Tracking - Freddie Mac - ARM Qualifying Rate 15.1 15.2 16.1
Virtual AUSTRACKING.AUS.X146 DECIMAL_3 Last Snapshot - AUS Tracking - Freddie Mac - TLTV 15.1 15.2 16.1
Virtual AUSTRACKING.AUS.X147 DECIMAL_3 Last Snapshot - AUS Tracking - Freddie Mac - HTLTV 15.1 15.2 16.1
Virtual AUSTRACKING.AUS.X148 DECIMAL_3 Last Snapshot - AUS Tracking - Freddie Mac - Housing Ratio 15.1 15.2 16.1
Virtual AUSTRACKING.AUS.X149 DECIMAL_3 Last Snapshot - AUS Tracking - Freddie Mac - Debt Ratio 15.1 15.2 16.1
Virtual AUSTRACKING.AUS.X150 DECIMAL_3 Last Snapshot - AUS Tracking - Freddie Mac - Occupant Housing Ratio 15.1 15.2 16.1
Virtual AUSTRACKING.AUS.X151 DECIMAL_3 Last Snapshot - AUS Tracking - Freddie Mac - Occupant Debt Ratio 15.1 15.2 16.1
Virtual AUSTRACKING.AUS.X152 STRING Last Snapshot - AUS Tracking - Freddie Mac - Neg. Amortization Type 15.1 15.2 16.1
Virtual AUSTRACKING.AUS.X153 STRING Last Snapshot - AUS Tracking - Freddie Mac - Temporary Subsidy Buydown 15.1 15.2 16.1
Virtual AUSTRACKING.AUS.X154 STRING Last Snapshot - AUS Tracking - Freddie Mac - New Construction 15.1 15.2 16.1
Virtual AUSTRACKING.AUS.X155 STRING Last Snapshot - AUS Tracking - Freddie Mac - Affordable Product Type 15.1 15.2 16.1
Virtual AUSTRACKING.AUS.X156 STRING Last Snapshot - AUS Tracking - Freddie Mac - Offering Identifier 15.1 15.2 16.1
Virtual AUSTRACKING.AUS.X157 STRING Last Snapshot - AUS Tracking - Freddie Mac - Intended Use of Property 15.1 15.2 16.1
Virtual AUSTRACKING.AUS.X158 DECIMAL_2 Last Snapshot - AUS Tracking - Freddie Mac - Cash Out Amount 15.1 15.2 16.1
Virtual AUSTRACKING.AUS.X159 DECIMAL_2 Last Snapshot - AUS Tracking - Freddie Mac - Reserves 15.1 15.2 16.1
Virtual AUSTRACKING.AUS.X160 DECIMAL_2 Last Snapshot - AUS Tracking - Freddie Mac - Proposed Housing (PITI) 15.1 15.2 16.1
Virtual AUSTRACKING.AUS.X161 DECIMAL_2 Last Snapshot - AUS Tracking - Freddie Mac - Present Housing Expense 15.1 15.2 16.1
Virtual AUSTRACKING.AUS.X162 DECIMAL_2 Last Snapshot - AUS Tracking - Freddie Mac - Max Mortgage Limit 15.1 15.2 16.1
Virtual AUSTRACKING.AUS.X163 STRING Last Snapshot - AUS Tracking - Freddie Mac - Sales Concessions 15.1 15.2 16.1
Virtual AUSTRACKING.AUS.X164 STRING Last Snapshot - AUS Tracking - Freddie Mac - Originating Company 15.1 15.2 16.1
Virtual AUSTRACKING.AUS.X165 STRING Last Snapshot - AUS Tracking - Freddie Mac - Submitting Company 15.1 15.2 16.1
Virtual AUSTRACKING.AUS.X166 STRING Last Snapshot - AUS Tracking - Freddie Mac - Seller Number 15.1 15.2 16.1
Virtual AUSTRACKING.AUS.X167 STRING Last Snapshot - AUS Tracking - Freddie Mac - TPO Number 15.1 15.2 16.1
Virtual AUSTRACKING.AUS.X168 STRING Last Snapshot - AUS Tracking - Freddie Mac - Date Time Requested 15.1 15.2 16.1
Virtual AUSTRACKING.AUS.X169 STRING Last Snapshot - AUS Tracking - Freddie Mac - Date Time Assessed 15.1 15.2 16.1
Virtual AUSTRACKING.AUS.X170 STRING Last Snapshot - AUS Tracking - Freddie Mac - # of Submissions 15.1 15.2 16.1
Virtual AUSTRACKING.AUS.X171 STRING Last Snapshot - AUS Tracking - Freddie Mac - NOTP Number 15.1 15.2 16.1
Virtual AUSTRACKING.AUS.X172 STRING Last Snapshot - AUS Tracking - Freddie Mac - Property Type 15.1 15.2 16.1
Virtual AUSTRACKING.AUS.X175 STRING Last Snapshot - AUS Tracking - Freddie Mac LQA - Data Compare Result 16.2
Virtual AUSTRACKING.AUS.X176 STRING Last Snapshot - AUS Tracking - Freddie Mac LQA - LP Key 16.2
Virtual AUSTRACKING.AUS.X177 DATETIME Last Snapshot - AUS Tracking - Freddie Mac LQA - Submission DateTime 16.2
Virtual AUSTRACKING.AUS.X178 STRING Last Snapshot - AUS Tracking - Freddie Mac LQA - Data Compare Field Name 16.2
Virtual AUSTRACKING.AUS.X179 STRING Last Snapshot - AUS Tracking - Freddie Mac LQA - Data Compare Field Conclusion 16.2
Virtual AUSTRACKING.AUS.X180 STRING Last Snapshot - AUS Tracking - Freddie Mac LQA - Risk Assessment Key 16.2
Virtual AUSTRACKING.AUS.X181 STRING Last Snapshot - AUS Tracking - Freddie Mac LQA - Credit Risk Assessment Conclusion 16.2
Virtual AUSTRACKING.AUS.X182 STRING Last Snapshot - AUS Tracking - Freddie Mac LQA - Purchase Eligibility Result 16.2
Virtual AUSTRACKING.AUS.X183 STRING Last Snapshot - AUS Tracking - Freddie Mac LQA - Collateral Rep and Warranty Service Conclusion 16.2
Virtual AUSTRACKING.AUS.X184 STRING Last Snapshot - AUS Tracking - Freddie Mac LCLA - Evaluated Service Type 1 16.2
Virtual AUSTRACKING.AUS.X185 STRING Last Snapshot - AUS Tracking - Freddie Mac LCLA - Evaluated Service Conclusion 1 16.2
Virtual AUSTRACKING.AUS.X186 STRING Last Snapshot - AUS Tracking - Freddie Mac LCLA - Evaluated Service Type 2 16.2
Virtual AUSTRACKING.AUS.X187 STRING Last Snapshot - AUS Tracking - Freddie Mac LCLA - Evaluated Service Conclusion 2 16.2
Virtual AUSTRACKING.AUS.X188 STRING Last Snapshot - AUS Tracking - Freddie Mac LCLA - Evaluated Service Type 3 16.2
Virtual AUSTRACKING.AUS.X189 STRING Last Snapshot - AUS Tracking - Freddie Mac LCLA - Evaluated Service Conclusion 3 16.2
Virtual AUSTRACKING.AUS.X190 STRING Last Snapshot - AUS Tracking - Freddie Mac LCLA - Evaluated Service Type 4 16.2
Virtual AUSTRACKING.AUS.X191 STRING Last Snapshot - AUS Tracking - Freddie Mac LCLA - LCLAEvaluated Service Conclusion 4 16.2
Virtual AUSTRACKING.AUS.X55 INTEGER Last Snapshot - AUS Tracking - Fannie Mae - Payment Frequency 15.1 15.2 16.1
Standard CASASRN.X1 YN 2 Freddie Mac Order Credit
Standard CASASRN.X10 YN 2 Freddie Mac Transfer Loan to Conduit
Standard CASASRN.X100 STRING Freddie Mac Special Instructions 1
Standard CASASRN.X101 STRING Freddie Mac Special Instructions 2
Standard CASASRN.X102 STRING Freddie Mac Special Instructions 3
Standard CASASRN.X103 STRING Freddie Mac Special Instructions 4
Standard CASASRN.X104 STRING Freddie Mac Special Instructions 5
Standard CASASRN.X106 STRING 6 Freddie Mac Conduit
Standard CASASRN.X107 STRING 5 Freddie Mac Lender Processing Point
Standard CASASRN.X109 DECIMAL_2 Freddie Mac Lender Net Purch Price
Standard CASASRN.X112 STRING 4 Freddie Mac Lender Secondary Finance
Standard CASASRN.X114 STRING 7 Freddie Mac Lender Affordable Product
Standard CASASRN.X13 STRING Freddie Mac LP Key #
Standard CASASRN.X131 DECIMAL_2 Freddie Mac Total Non-Occ Pres Housing Exp
Standard CASASRN.X135 STRING 7 Freddie Mac Lender ARM Index
Standard CASASRN.X14 STRING 11 Freddie Mac Lender Property Type
Standard CASASRN.X141 STRING 8 Freddie Mac Buydown Contributor
Standard CASASRN.X142 DECIMAL_3 Freddie Mac Lender Orig Interest Rate
Standard CASASRN.X144 STRING 4 Freddie Mac Lender Requiredd Doc Type
Standard CASASRN.X145 STRING Freddie Mac FHA/VA Info Houshld Size
Standard CASASRN.X146 STRING 3 Freddie Mac MI Refundable Option
Standard CASASRN.X148 STRING 3 Freddie Mac MI Renewal Type
Standard CASASRN.X15 DECIMAL_2 Freddie Mac Lender Simulated PITI
Standard CASASRN.X150 STRING 4 Freddie Mac MI Renewal Option
Standard CASASRN.X152 STRING 6 Freddie Mac MI Pymt Option
Standard CASASRN.X154 STRING 5 Freddie Mac MI Pymt Frequency
Standard CASASRN.X156 STRING 9 Freddie Mac MI Yrs Coverage
Standard CASASRN.X158 STRING 3 Freddie Mac MI Premium Source
Standard CASASRN.X159 DECIMAL_2 Freddie Mac FHA/VA Alimony as Inc Reduc
Standard CASASRN.X16 DECIMAL_2 Freddie Mac Total Present Housing Expense
Standard CASASRN.X160 STRING 5 Freddie Mac Loss Coverage Est
Standard CASASRN.X161 STRING Freddie Mac Lender Registration #
Standard CASASRN.X162 STRING Freddie Mac Freddie Field 3
Standard CASASRN.X163 STRING 14 Freddie Mac Offering Identifier 16.1 18.2
Standard CASASRN.X164 STRING 2 Freddie Mac No-Appraisal MAF
Standard CASASRN.X165 STRING Freddie Mac Broker Originated
Standard CASASRN.X167 STRING Freddie Mac HELOC Actual Bal
Standard CASASRN.X168 STRING Freddie Mac HELOC Credit Limit
Standard CASASRN.X169 STRING Freddie Mac Amt Financed MI
Standard CASASRN.X17 STRING Freddie Mac Lender APN City
Standard CASASRN.X170 STRING Freddie Mac Borr Field 1
Standard CASASRN.X171 STRING Freddie Mac Borr Field 2
Standard CASASRN.X173 STRING 14 Freddie Mac Order Risk Grade Eval Source
Standard CASASRN.X174 DECIMAL_2 Freddie Mac Total Debt
Standard CASASRN.X176 INTEGER Freddie Mac Borr % of Business Owned
Standard CASASRN.X177 INTEGER Freddie Mac Co-Borr % of Business Owned
Standard CASASRN.X178 DECIMAL_2 Freddie Mac Borr Income from Self Emp
Standard CASASRN.X179 DECIMAL_2 Freddie Mac Co-Borr Income from Self Emp
Standard CASASRN.X18 STRING Freddie Mac Lender APN State
Standard CASASRN.X180 STRING Freddie Mac Co-Borr Field 1
Standard CASASRN.X181 STRING Freddie Mac Co-Borr Field 2
Standard CASASRN.X19 DECIMAL_2 Freddie Mac Lender Sales Concessions
Standard CASASRN.X197 STRING 2 Freddie Mac New Construction Type
Standard CASASRN.X198 STRING Freddie Mac Credit Ref #
Standard CASASRN.X2 STRING 7 Freddie Mac Merged Credit Rpt Source
Standard CASASRN.X20 DECIMAL_2 Freddie Mac Financing Concessions
Standard CASASRN.X200 STRING Freddie Mac Loan Prospector ID
Standard CASASRN.X201 DECIMAL_3 Freddie Mac Additional Data - Occupancy Housing Ratio 14.2
Standard CASASRN.X202 DECIMAL_3 Freddie Mac Additional Data - Occupancy Debt Ratio 14.2
Standard CASASRN.X203 STRING Freddie Mac Correspondent Assignment Center ID 17.4
Standard CASASRN.X27 STRING Freddie Mac FHA/VA Originate ID
Standard CASASRN.X29 STRING 5 Freddie Mac Lender Loan Purpose
Standard CASASRN.X3 STRING 8 Freddie Mac MI Souce
Standard CASASRN.X30 YN 2 Freddie Mac Lender 2nd Trust Pd on Closing
Standard CASASRN.X31 STRING Freddie Mac AccountChek Asset ID (Bor) 16.2
Standard CASASRN.X32 STRING Freddie Mac AccountChek Asset ID (CoBor) 16.2
Standard CASASRN.X33 STRING Freddie Mac Freddie Field 13
Standard CASASRN.X34 STRING Freddie Mac Freddie Field 14
Standard CASASRN.X4 YN 2 Freddie Mac Order Risk Grade Eval
Standard CASASRN.X41 STRING Freddie Mac Long Legal Descr
Standard CASASRN.X77 YN 2 Freddie Mac Lender Retail Loan
Standard CASASRN.X78 DECIMAL_2 Freddie Mac Total Reserves
Standard CASASRN.X79 DECIMAL_2 Freddie Mac Lender Cash Out Amt 17.4
Standard CASASRN.X80 PHONE Freddie Mac Lender Alt Phone
Standard CASASRN.X81 YN 2 Freddie Mac Lender Arms-Length Trans
Standard CASASRN.X84 STRING 4 Freddie Mac Lender Condo Class
Standard CASASRN.X85 YN 2 Freddie Mac Lender Allows Neg Amort
Standard CASASRN.X88 YN 2 Freddie Mac Order Merged Credit Rpt
Standard CASASRN.X89 STRING 3 Freddie Mac Order MI
Standard CASASRN.X98 STRING 4 Freddie Mac Risk Class
Standard CASASRN.X99 DECIMAL_2 Freddie Mac Total All Mo Pymts
Standard CLOSING.INVSVCRCNTCTTOLLFREEPHONENUM STRING Ellie Mae Closing Document Override - Investor Servicer Contact Toll-Free Telephone Number 8.1
Standard CLOSING.INVTOLLFREEPHONENUM STRING Ellie Mae Closing Document Override - Investor Toll-Free Telephone Number 8.1
Standard CLOSING.LNDBRCHTOLLFREEPHONE STRING Ellie Mae Closing Document Override - Lender Branch Toll-Free Telephone Number 8.1
Standard CLOSING.LNDSVCRCNTCTTOLLFREEPHONENUM STRING Ellie Mae Closing Document Override - Lender Servicer Contact Toll-Free Telephone Number 8.1
Standard CLOSING.LNDTOLLFREEPHONENUM STRING Ellie Mae Closing Document Override - Lender Toll-Free Telephone Number 8.1
Standard CLOSING.RECRTRNTOLLFREEPHONENUM STRING Ellie Mae Closing Document Override - Record And Return Toll-Free Telephone Number 8.1
Standard DISCLOSURE.X1069 PHONE South Carolina State Specific Disclosure - Regulator Toll-free Phone 9.1
Standard DISCLOSURE.X130 PHONE Disclosure-NY Ques/Comments Toll Free
Standard DISCLOSURE.X942 STRING 4 Disclosure-NV Servicing Fee Paid Frequency
Virtual DOCS.CLOSING.INVSVCRCNTCTTOLLFREEPHONENUM STRING Closing Docs - Investor Servicer Contact Toll-Free Telephone Number 8.1
Virtual DOCS.CLOSING.INVTOLLFREEPHONENUM STRING Closing Docs - Investor Toll-Free Telephone Number 8.1
Virtual DOCS.CLOSING.LNDBRCHTOLLFREEPHONE STRING Closing Docs - Lender Branch Toll-Free Telephone Number 8.1
Virtual DOCS.CLOSING.LNDSVCRCNTCTTOLLFREEPHONENUM STRING Closing Docs - Lender Servicer Contact Toll-Free Telephone Number 8.1
Virtual DOCS.CLOSING.LNDTOLLFREEPHONENUM STRING Closing Docs - Lender Toll-Free Telephone Number 8.1
Virtual DOCS.CLOSING.RECRTRNTOLLFREEPHONENUM STRING Closing Docs - Record And Return Toll-Free Telephone Number 8.1
Standard HC0008 PHONE Home Counseling Provider - Agency Phone Toll Free Number 9.1
Standard HOC.X8 PHONE Home Counseling Provider - Agency Phone Toll Free Number 9.1
Standard INCOMEFREQ1 STRING Income Calc Base Income Freq Borr
Standard INCOMEFREQ2 STRING Income Calc Base Income Freq Co-Borr
Standard LE2.X97 STRING Loan Estimate - First Change Frequency Month Suffix 15.1
Standard LE2.X98 STRING Loan Estimate - Subsequent Change Frequency Month Suffix 15.1
Standard LE2.X99 INTEGER Loan Estimate - First Change Frequency Month 15.1
Virtual LOCKRATE.353 DECIMAL_3 Rate Lock - Freddie Mac Loan To Value (LTV) (Most Recent) 14.2
Virtual LOCKRATE.3846 STRING Rate Lock - Lock Request Freddie Mac HELOC Actual Bal (Most Recent) 9.1
Virtual LOCKRATE.CONFIRMED.353 DECIMAL_3 Rate Request - Freddie Mac Loan To Value (LTV) (Mostly Recent Confirmed) 14.2
Virtual LOCKRATE.CONFIRMED.3846 STRING Rate Request - Lock Request Freddie Mac HELOC Actual Bal (Mostly Recent Confirmed) 9.1
Virtual LOCKRATE.DENIED.353 DECIMAL_3 Rate Lock Denial - Freddie Mac Loan To Value (LTV) (Most Recent) 8.1 14.2
Virtual LOCKRATE.DENIED.3846 STRING Rate Lock Denial - Lock Request Freddie Mac HELOC Actual Bal (Most Recent) 9.1
Virtual LOCKRATE.REQUEST.353 DECIMAL_3 Rate Lock Request - Freddie Mac Loan To Value (LTV) (Most Recent) 8.1 14.2
Virtual LOCKRATE.REQUEST.3846 STRING Rate Lock Request - Lock Request Freddie Mac HELOC Actual Bal (Most Recent) 9.1
Virtual LOCKRATE1.353 DECIMAL_3 Rate Lock - Freddie Mac Loan To Value (LTV) (Previous 1) 14.2
Virtual LOCKRATE1.3846 STRING Rate Lock - Lock Request Freddie Mac HELOC Actual Bal (Previous 1) 9.1
Virtual LOCKRATE1.DENIED.353 DECIMAL_3 Rate Lock Denial - Freddie Mac Loan To Value (LTV) (Previous 1) 8.1 14.2
Virtual LOCKRATE1.DENIED.3846 STRING Rate Lock Denial - Lock Request Freddie Mac HELOC Actual Bal (Previous 1) 9.1
Virtual LOCKRATE1.REQUEST.353 DECIMAL_3 Rate Lock Request - Freddie Mac Loan To Value (LTV) (Previous 1) 8.1 14.2
Virtual LOCKRATE1.REQUEST.3846 STRING Rate Lock Request - Lock Request Freddie Mac HELOC Actual Bal (Previous 1) 9.1
Virtual LOCKRATE2.353 DECIMAL_3 Rate Lock - Freddie Mac Loan To Value (LTV) (Previous 2) 14.2
Virtual LOCKRATE2.3846 STRING Rate Lock - Lock Request Freddie Mac HELOC Actual Bal (Previous 2) 9.1
Virtual LOCKRATE2.DENIED.353 DECIMAL_3 Rate Lock Denial - Freddie Mac Loan To Value (LTV) (Previous 2) 8.1 14.2
Virtual LOCKRATE2.DENIED.3846 STRING Rate Lock Denial - Lock Request Freddie Mac HELOC Actual Bal (Previous 2) 9.1
Virtual LOCKRATE2.REQUEST.353 DECIMAL_3 Rate Lock Request - Freddie Mac Loan To Value (LTV) (Previous 2) 8.1 14.2
Virtual LOCKRATE2.REQUEST.3846 STRING Rate Lock Request - Lock Request Freddie Mac HELOC Actual Bal (Previous 2) 9.1
Virtual LOCKRATE3.353 DECIMAL_3 Rate Request - Freddie Mac Loan To Value (LTV) (Most Recent) 14.2
Virtual LOCKRATE3.3846 STRING Rate Request - Lock Request Freddie Mac HELOC Actual Bal (Most Recent) 9.1
Standard ORDERFREDDIEINDICATOR.X1 YN 2 Freddie LPA Report Auto Order Indicator 17.2
Standard ORDERFREDDIEINDICATOR.X2 YN 2 Freddie LQA Report Auto Order Indicator 17.2
Standard ULDD.FRE.ARMINDEXTYPE STRING 5 ULDD Freddie ARM Index Type 8.1
Standard ULDD.FRE.AUTOUWDEC STRING 9 Freddie Automatic Underwriting Decision 8.1
Standard ULDD.FRE.AVMMODELNAMEEXPL STRING 18 ULDD Freddie - AVM Model Name Type Other Description 8.1
Standard ULDD.FRE.CLOSINGCOST2CONTRIBUTIONAMOUNT DECIMAL_2 ULDD - Freddie Mac - Closing Cost Contribution Amount 14.2
Standard ULDD.FRE.CLOSINGCOST2FUNDSTYPE STRING 22 ULDD - Freddie Mac - Closing Cost Funds Type 14.2
Standard ULDD.FRE.CLOSINGCOST2FUNDSTYPEOTHERDESC STRING 3 ULDD - Freddie Mac - Closing Cost Funds Type Other Description 14.2
Standard ULDD.FRE.CLOSINGCOST2SOURCETYPE STRING 11 ULDD - Freddie Mac - Closing Cost Source Type 14.2
Standard ULDD.FRE.CLOSINGCOST2SOURCETYPEOTHERDESC STRING 3 ULDD - Freddie Mac - Closing Cost Source Type Other Description 14.2
Standard ULDD.FRE.CLOSINGCOST3CONTRIBUTIONAMOUNT DECIMAL_2 ULDD - Freddie Mac - Closing Cost Contribution Amount 14.2
Standard ULDD.FRE.CLOSINGCOST3FUNDSTYPE STRING 22 ULDD - Freddie Mac - Closing Cost Funds Type 14.2
Standard ULDD.FRE.CLOSINGCOST3FUNDSTYPEOTHERDESC STRING 3 ULDD - Freddie Mac - Closing Cost Funds Type Other Description 14.2
Standard ULDD.FRE.CLOSINGCOST3SOURCETYPE STRING 11 ULDD - Freddie Mac - Closing Cost Source Type 14.2
Standard ULDD.FRE.CLOSINGCOST3SOURCETYPEOTHERDESC STRING 3 ULDD - Freddie Mac - Closing Cost Source Type Other Description 14.2
Standard ULDD.FRE.CLOSINGCOST4CONTRIBUTIONAMOUNT DECIMAL_2 ULDD - Freddie Mac - Closing Cost Contribution Amount 14.2
Standard ULDD.FRE.CLOSINGCOST4FUNDSTYPE STRING 22 ULDD - Freddie Mac - Closing Cost Funds Type 14.2
Standard ULDD.FRE.CLOSINGCOST4FUNDSTYPEOTHERDESC STRING 3 ULDD - Freddie Mac - Closing Cost Funds Type Other Description 14.2
Standard ULDD.FRE.CLOSINGCOST4SOURCETYPE STRING 11 ULDD - Freddie Mac - Closing Cost Source Type 14.2
Standard ULDD.FRE.CLOSINGCOST4SOURCETYPEOTHERDESC STRING 3 ULDD - Freddie Mac - Closing Cost Source Type Other Description 14.2
Standard ULDD.FRE.CREDITSCOREPROVIDERNAME STRING Credit Score Provider Name 9.1
Standard ULDD.FRE.DOWNPAYMENTTYPE STRING 17 ULDD Freddie Down Payment Type 8.1
Standard ULDD.FRE.DOWNPMT2SOURCETYPE STRING 9 ULDD - Down Payment 2 Source Type 8.1
Standard ULDD.FRE.DOWNPMT2SOURCETYPEEXPL STRING 3 ULDD - Down Payment 2 SourceType Other Description 8.1
Standard ULDD.FRE.DOWNPMT2TYPE STRING 17 ULDD Freddie Down Payment 2 Type 8.1
Standard ULDD.FRE.DOWNPMT2TYPEEXPL STRING 3 ULDD Freddie Down Payment 2 Type Explanation 8.1
Standard ULDD.FRE.DOWNPMT3AMT DECIMAL_2 Freddie Down Payment 3 Amount 8.1
Standard ULDD.FRE.DOWNPMT3SOURCETYPE STRING 9 ULDD - Down Payment 3 Source Type 8.1
Standard ULDD.FRE.DOWNPMT3SOURCETYPEEXPL STRING 3 ULDD - Down Payment 3 SourceType Other Description 8.1
Standard ULDD.FRE.DOWNPMT3TYPE STRING 17 ULDD Freddie Down Payment 3 Type 8.1
Standard ULDD.FRE.DOWNPMT3TYPEEXPL STRING 3 ULDD Freddie Down Payment 3 Type Explanation 8.1
Standard ULDD.FRE.DOWNPMT4AMT DECIMAL_2 Freddie Down Payment 4 Amount 8.1
Standard ULDD.FRE.DOWNPMT4SOURCETYPE STRING 9 ULDD - Down Payment 4 Source Type 8.1
Standard ULDD.FRE.DOWNPMT4SOURCETYPEEXPL STRING 3 ULDD - Down Payment 4 SourceType Other Description 8.1
Standard ULDD.FRE.DOWNPMT4TYPE STRING 17 ULDD Freddie Down Payment 4 Type 8.1
Standard ULDD.FRE.DOWNPMT4TYPEEXPL STRING 3 ULDD Freddie Down Payment 4 Type Explanation 8.1
Standard ULDD.FRE.EXPLANATIONOFDOWNPAYMENT STRING 3 ULDD Freddie Explanation of Down Payment 8.1
Standard ULDD.FRE.LOANPROGRAMIDENTIFIER STRING 38 ULDD Freddie Loan Program Identifier 8.1
Standard ULDD.FRE.PROPERTYFORMTYPE STRING 13 Property Valuation Form Type 9.1
Standard ULDD.FRE.RELATEDCLOSEDENDSECONDINDICATOR YN 2 ULDD Freddie Related Closed End Second Indicator 8.1
Standard ULDD.FRE.RELATEDINVESTORLOANID STRING ULDD Freddie Related Investor Loan ID 8.1
Standard ULDD.FRE.SECTIONOFACT STRING 5 ULDD Freddie Section of the Act 9.1
Standard ULDD.FRE.X1172 STRING 5 Trans Details Loan Type 8.1
Standard ULDD.X100 YN 2 ULDD - Freddie Mac - Loan delivered through the servicing released process
Standard ULDD.X101 INTEGER ULDD - Freddie Mac - Loan Level Credit Score Value
Standard ULDD.X102 STRING 4 ULDD - Freddie Mac - Loan Level Credit Score Method
Standard ULDD.X103 STRING 1 ULDD - Freddie Mac - Loan Level Credit Score Selection Method Type Other Description
Standard ULDD.X104 STRING 2 ULDD - Freddie Mac - Credit Score Impairment Type
Standard ULDD.X105 DECIMAL_2 ULDD - Freddie Mac - Closing Cost Contribution Amount
Standard ULDD.X106 STRING 22 ULDD - Freddie Mac - Closing Cost Funds Type 8.1
Standard ULDD.X107 STRING 3 ULDD - Freddie Mac - Closing Cost Funds Type Other Description
Standard ULDD.X108 STRING 11 ULDD - Freddie Mac - Closing Cost Source Type
Standard ULDD.X109 STRING 3 ULDD - Freddie Mac - Closing Cost Source Type Other Description
Standard ULDD.X110 DECIMAL_2 ULDD - Freddie Mac - Other Funds Collected at Closing
Standard ULDD.X111 STRING 4 ULDD - Freddie Mac - Other Funds collected at Closing for
Standard ULDD.X113 STRING 3 ULDD - Freddie Mac - Down Payment Other Type Description
Standard ULDD.X119 STRING 7 Borr Freddie Legal Entity Type
Standard ULDD.X121 STRING 4 Borr Freddie Legal Entity Type Other
Standard ULDD.X123 STRING 2 Freddie Borr Declarations Alien Status
Standard ULDD.X127 STRING 2 Freddie Related Loan Type
Standard ULDD.X130 STRING 6 Freddie Refinance Type
Standard ULDD.X135 STRING 10 Freddie MI Company Name Type Other 8.1 18.3
Standard ULDD.X141 STRING 6 Freddie Project Classification Type
Standard ULDD.X145 STRING 3 Freddie Related Loan Lien Position
Standard ULDD.X146 STRING 3 Freddie Related Loan Lien Position
Standard ULDD.X148 STRING 2 Freddie Co Borr Declarations Alien Status
Standard ULDD.X149 STRING 2 Freddie Underwriting Type Other
Standard ULDD.X153 STRING 2 Freddie Loan Type Other
Standard ULDD.X167 INTEGER ULDD - Subsequent Rate Adjustment Frequency
Standard ULDD.X179 STRING ULDD - Freddie Investor Feature ID 8.1
Standard ULDD.X59 INTEGER ULDD - Rate Adjustment Frequency
Standard ULDD.X99 STRING 2 ULDD - Freddie Mac - Related Loan Investor Type